<?xml version="1.0" encoding="utf-8"?>
<gpx xmlns:xsi="http://www.w3.org/2001/XMLSchema-instance" xmlns:xsd="http://www.w3.org/2001/XMLSchema" version="1.1" creator="Shapelink.com" xmlns="http://www.topografix.com/GPX/1/1" xmlns:gpxtpx="http://www.garmin.com/xmlschemas/TrackPointExtension/v1">
  <metadata>
    <name>Gåing 1.23 km, 2013-05-19</name>
    <desc></desc>
    <author><name>Mikael Blom</name></author> 
    <time>2013-05-19T11:49:56Z</time>
  </metadata>
  <trk>
    <name>Gåing 1.23 km, 2013-05-19</name>
    <trkseg>
      <trkpt lat="59.9090957" lon="17.7135034">
        <ele>37.6287</ele>
        <time>2013-05-19T11:49:56Z</time>
      </trkpt>
      <trkpt lat="59.9091099" lon="17.7135227">
        <ele>38.5901</ele>
        <time>2013-05-19T11:49:57Z</time>
      </trkpt>
      <trkpt lat="59.9091351" lon="17.7135388">
        <ele>39.5513</ele>
        <time>2013-05-19T11:49:58Z</time>
      </trkpt>
      <trkpt lat="59.9091513" lon="17.7135698">
        <ele>40.9934</ele>
        <time>2013-05-19T11:49:59Z</time>
      </trkpt>
      <trkpt lat="59.909168" lon="17.7135994">
        <ele>41.474</ele>
        <time>2013-05-19T11:50:00Z</time>
      </trkpt>
      <trkpt lat="59.9091793" lon="17.7136284">
        <ele>43.3966</ele>
        <time>2013-05-19T11:50:01Z</time>
      </trkpt>
      <trkpt lat="59.9091913" lon="17.7136507">
        <ele>42.916</ele>
        <time>2013-05-19T11:50:02Z</time>
      </trkpt>
      <trkpt lat="59.909202" lon="17.7136719">
        <ele>43.3966</ele>
        <time>2013-05-19T11:50:03Z</time>
      </trkpt>
      <trkpt lat="59.9092021" lon="17.7136942">
        <ele>41.9547</ele>
        <time>2013-05-19T11:50:04Z</time>
      </trkpt>
      <trkpt lat="59.9092031" lon="17.7137174">
        <ele>42.4354</ele>
        <time>2013-05-19T11:50:05Z</time>
      </trkpt>
      <trkpt lat="59.9092097" lon="17.7137373">
        <ele>41.9547</ele>
        <time>2013-05-19T11:50:06Z</time>
      </trkpt>
      <trkpt lat="59.9092174" lon="17.7137552">
        <ele>42.916</ele>
        <time>2013-05-19T11:50:07Z</time>
      </trkpt>
      <trkpt lat="59.9092233" lon="17.7137808">
        <ele>44.358</ele>
        <time>2013-05-19T11:50:08Z</time>
      </trkpt>
      <trkpt lat="59.9092324" lon="17.7138">
        <ele>43.8773</ele>
        <time>2013-05-19T11:50:09Z</time>
      </trkpt>
      <trkpt lat="59.9092454" lon="17.7138129">
        <ele>43.8773</ele>
        <time>2013-05-19T11:50:10Z</time>
      </trkpt>
      <trkpt lat="59.909257" lon="17.7138237">
        <ele>43.8773</ele>
        <time>2013-05-19T11:50:11Z</time>
      </trkpt>
      <trkpt lat="59.9092694" lon="17.7138309">
        <ele>44.358</ele>
        <time>2013-05-19T11:50:12Z</time>
      </trkpt>
      <trkpt lat="59.9092797" lon="17.7138362">
        <ele>43.8773</ele>
        <time>2013-05-19T11:50:13Z</time>
      </trkpt>
      <trkpt lat="59.9092905" lon="17.7138387">
        <ele>42.916</ele>
        <time>2013-05-19T11:50:14Z</time>
      </trkpt>
      <trkpt lat="59.909296" lon="17.7138603">
        <ele>44.8386</ele>
        <time>2013-05-19T11:50:15Z</time>
      </trkpt>
      <trkpt lat="59.9093145" lon="17.7138652">
        <ele>44.8386</ele>
        <time>2013-05-19T11:50:16Z</time>
      </trkpt>
      <trkpt lat="59.9093216" lon="17.713876">
        <ele>44.8386</ele>
        <time>2013-05-19T11:50:17Z</time>
      </trkpt>
      <trkpt lat="59.9093346" lon="17.7138755">
        <ele>44.8386</ele>
        <time>2013-05-19T11:50:18Z</time>
      </trkpt>
      <trkpt lat="59.9093472" lon="17.7138782">
        <ele>45.7999</ele>
        <time>2013-05-19T11:50:19Z</time>
      </trkpt>
      <trkpt lat="59.90935" lon="17.7138934">
        <ele>46.2806</ele>
        <time>2013-05-19T11:50:20Z</time>
      </trkpt>
      <trkpt lat="59.9093562" lon="17.7139084">
        <ele>47.2418</ele>
        <time>2013-05-19T11:50:21Z</time>
      </trkpt>
      <trkpt lat="59.9093677" lon="17.7139174">
        <ele>47.7225</ele>
        <time>2013-05-19T11:50:22Z</time>
      </trkpt>
      <trkpt lat="59.9093803" lon="17.7139159">
        <ele>46.2806</ele>
        <time>2013-05-19T11:50:23Z</time>
      </trkpt>
      <trkpt lat="59.9093932" lon="17.7139097">
        <ele>45.3192</ele>
        <time>2013-05-19T11:50:24Z</time>
      </trkpt>
      <trkpt lat="59.9094076" lon="17.7139089">
        <ele>45.3192</ele>
        <time>2013-05-19T11:50:25Z</time>
      </trkpt>
      <trkpt lat="59.9094165" lon="17.7139103">
        <ele>46.2806</ele>
        <time>2013-05-19T11:50:26Z</time>
      </trkpt>
      <trkpt lat="59.9094305" lon="17.7139108">
        <ele>46.2806</ele>
        <time>2013-05-19T11:50:27Z</time>
      </trkpt>
      <trkpt lat="59.9094379" lon="17.7139134">
        <ele>46.2806</ele>
        <time>2013-05-19T11:50:28Z</time>
      </trkpt>
      <trkpt lat="59.9094485" lon="17.7139067">
        <ele>46.7612</ele>
        <time>2013-05-19T11:50:29Z</time>
      </trkpt>
      <trkpt lat="59.9094688" lon="17.7139053">
        <ele>47.7225</ele>
        <time>2013-05-19T11:50:30Z</time>
      </trkpt>
      <trkpt lat="59.909485" lon="17.7139055">
        <ele>46.2806</ele>
        <time>2013-05-19T11:50:31Z</time>
      </trkpt>
      <trkpt lat="59.9095028" lon="17.7139074">
        <ele>46.2806</ele>
        <time>2013-05-19T11:50:32Z</time>
      </trkpt>
      <trkpt lat="59.9095113" lon="17.7139142">
        <ele>46.7612</ele>
        <time>2013-05-19T11:50:33Z</time>
      </trkpt>
      <trkpt lat="59.9095203" lon="17.7139168">
        <ele>47.2418</ele>
        <time>2013-05-19T11:50:34Z</time>
      </trkpt>
      <trkpt lat="59.9095378" lon="17.7139143">
        <ele>47.2418</ele>
        <time>2013-05-19T11:50:35Z</time>
      </trkpt>
      <trkpt lat="59.9095588" lon="17.71391">
        <ele>47.7225</ele>
        <time>2013-05-19T11:50:36Z</time>
      </trkpt>
      <trkpt lat="59.9095686" lon="17.713911">
        <ele>47.2418</ele>
        <time>2013-05-19T11:50:37Z</time>
      </trkpt>
      <trkpt lat="59.9095828" lon="17.7139133">
        <ele>47.7225</ele>
        <time>2013-05-19T11:50:38Z</time>
      </trkpt>
      <trkpt lat="59.9095962" lon="17.7139133">
        <ele>48.2034</ele>
        <time>2013-05-19T11:50:39Z</time>
      </trkpt>
      <trkpt lat="59.909617" lon="17.7139154">
        <ele>48.684</ele>
        <time>2013-05-19T11:50:40Z</time>
      </trkpt>
      <trkpt lat="59.9096267" lon="17.7139199">
        <ele>48.2034</ele>
        <time>2013-05-19T11:50:41Z</time>
      </trkpt>
      <trkpt lat="59.9096341" lon="17.7139204">
        <ele>45.3192</ele>
        <time>2013-05-19T11:50:42Z</time>
      </trkpt>
      <trkpt lat="59.9096337" lon="17.7139315">
        <ele>45.7999</ele>
        <time>2013-05-19T11:50:43Z</time>
      </trkpt>
      <trkpt lat="59.9096388" lon="17.7139304">
        <ele>45.3192</ele>
        <time>2013-05-19T11:50:44Z</time>
      </trkpt>
      <trkpt lat="59.9096427" lon="17.7139366">
        <ele>46.7612</ele>
        <time>2013-05-19T11:50:45Z</time>
      </trkpt>
      <trkpt lat="59.9096512" lon="17.7139423">
        <ele>47.7225</ele>
        <time>2013-05-19T11:50:46Z</time>
      </trkpt>
      <trkpt lat="59.9096655" lon="17.7139484">
        <ele>48.2034</ele>
        <time>2013-05-19T11:50:47Z</time>
      </trkpt>
      <trkpt lat="59.9096843" lon="17.7139454">
        <ele>45.7999</ele>
        <time>2013-05-19T11:50:48Z</time>
      </trkpt>
      <trkpt lat="59.9096937" lon="17.7139463">
        <ele>44.8386</ele>
        <time>2013-05-19T11:50:49Z</time>
      </trkpt>
      <trkpt lat="59.9097143" lon="17.7139412">
        <ele>44.8386</ele>
        <time>2013-05-19T11:50:50Z</time>
      </trkpt>
      <trkpt lat="59.9097334" lon="17.7139393">
        <ele>44.8386</ele>
        <time>2013-05-19T11:50:51Z</time>
      </trkpt>
      <trkpt lat="59.9097521" lon="17.7139325">
        <ele>44.8386</ele>
        <time>2013-05-19T11:50:52Z</time>
      </trkpt>
      <trkpt lat="59.909764" lon="17.7139247">
        <ele>43.3966</ele>
        <time>2013-05-19T11:50:53Z</time>
      </trkpt>
      <trkpt lat="59.9097797" lon="17.7139237">
        <ele>43.3966</ele>
        <time>2013-05-19T11:50:54Z</time>
      </trkpt>
      <trkpt lat="59.9097938" lon="17.713925">
        <ele>42.916</ele>
        <time>2013-05-19T11:50:55Z</time>
      </trkpt>
      <trkpt lat="59.9098133" lon="17.713921">
        <ele>44.8386</ele>
        <time>2013-05-19T11:50:56Z</time>
      </trkpt>
      <trkpt lat="59.9098299" lon="17.7139178">
        <ele>45.3192</ele>
        <time>2013-05-19T11:50:57Z</time>
      </trkpt>
      <trkpt lat="59.9098497" lon="17.7139122">
        <ele>45.3192</ele>
        <time>2013-05-19T11:50:58Z</time>
      </trkpt>
      <trkpt lat="59.9098587" lon="17.7139148">
        <ele>44.8386</ele>
        <time>2013-05-19T11:50:59Z</time>
      </trkpt>
      <trkpt lat="59.9098761" lon="17.7139154">
        <ele>43.8773</ele>
        <time>2013-05-19T11:51:00Z</time>
      </trkpt>
      <trkpt lat="59.9098922" lon="17.7139193">
        <ele>43.8773</ele>
        <time>2013-05-19T11:51:01Z</time>
      </trkpt>
      <trkpt lat="59.9099066" lon="17.7139262">
        <ele>43.8773</ele>
        <time>2013-05-19T11:51:02Z</time>
      </trkpt>
      <trkpt lat="59.9099258" lon="17.7139257">
        <ele>43.3966</ele>
        <time>2013-05-19T11:51:03Z</time>
      </trkpt>
      <trkpt lat="59.9099443" lon="17.7139221">
        <ele>43.3966</ele>
        <time>2013-05-19T11:51:04Z</time>
      </trkpt>
      <trkpt lat="59.9099549" lon="17.7139231">
        <ele>43.3966</ele>
        <time>2013-05-19T11:51:05Z</time>
      </trkpt>
      <trkpt lat="59.909963" lon="17.7139278">
        <ele>43.3966</ele>
        <time>2013-05-19T11:51:06Z</time>
      </trkpt>
      <trkpt lat="59.9099748" lon="17.713934">
        <ele>42.916</ele>
        <time>2013-05-19T11:51:07Z</time>
      </trkpt>
      <trkpt lat="59.9099832" lon="17.7139385">
        <ele>43.3966</ele>
        <time>2013-05-19T11:51:08Z</time>
      </trkpt>
      <trkpt lat="59.9099936" lon="17.7139377">
        <ele>43.3966</ele>
        <time>2013-05-19T11:51:09Z</time>
      </trkpt>
      <trkpt lat="59.9100053" lon="17.7139349">
        <ele>43.8773</ele>
        <time>2013-05-19T11:51:10Z</time>
      </trkpt>
      <trkpt lat="59.9100138" lon="17.7139381">
        <ele>44.8386</ele>
        <time>2013-05-19T11:51:11Z</time>
      </trkpt>
      <trkpt lat="59.9100257" lon="17.7139383">
        <ele>44.358</ele>
        <time>2013-05-19T11:51:12Z</time>
      </trkpt>
      <trkpt lat="59.9100412" lon="17.7139405">
        <ele>44.358</ele>
        <time>2013-05-19T11:51:13Z</time>
      </trkpt>
      <trkpt lat="59.9100645" lon="17.7139413">
        <ele>44.8386</ele>
        <time>2013-05-19T11:51:14Z</time>
      </trkpt>
      <trkpt lat="59.9100837" lon="17.7139309">
        <ele>44.8386</ele>
        <time>2013-05-19T11:51:15Z</time>
      </trkpt>
      <trkpt lat="59.9101076" lon="17.713924">
        <ele>44.8386</ele>
        <time>2013-05-19T11:51:16Z</time>
      </trkpt>
      <trkpt lat="59.9101237" lon="17.7139222">
        <ele>45.7999</ele>
        <time>2013-05-19T11:51:17Z</time>
      </trkpt>
      <trkpt lat="59.9101437" lon="17.713918">
        <ele>46.7612</ele>
        <time>2013-05-19T11:51:18Z</time>
      </trkpt>
      <trkpt lat="59.9101517" lon="17.7139309">
        <ele>46.7612</ele>
        <time>2013-05-19T11:51:19Z</time>
      </trkpt>
      <trkpt lat="59.9101557" lon="17.7139421">
        <ele>47.2418</ele>
        <time>2013-05-19T11:51:20Z</time>
      </trkpt>
      <trkpt lat="59.9101651" lon="17.7139475">
        <ele>46.2806</ele>
        <time>2013-05-19T11:51:21Z</time>
      </trkpt>
      <trkpt lat="59.910179" lon="17.7139562">
        <ele>45.7999</ele>
        <time>2013-05-19T11:51:22Z</time>
      </trkpt>
      <trkpt lat="59.9101961" lon="17.7139512">
        <ele>46.7612</ele>
        <time>2013-05-19T11:51:23Z</time>
      </trkpt>
      <trkpt lat="59.9102131" lon="17.7139418">
        <ele>47.7225</ele>
        <time>2013-05-19T11:51:24Z</time>
      </trkpt>
      <trkpt lat="59.9102266" lon="17.7139519">
        <ele>48.2034</ele>
        <time>2013-05-19T11:51:25Z</time>
      </trkpt>
      <trkpt lat="59.9102511" lon="17.7139609">
        <ele>49.6453</ele>
        <time>2013-05-19T11:51:26Z</time>
      </trkpt>
      <trkpt lat="59.9102681" lon="17.7139695">
        <ele>50.6066</ele>
        <time>2013-05-19T11:51:27Z</time>
      </trkpt>
      <trkpt lat="59.9102757" lon="17.7139759">
        <ele>51.0872</ele>
        <time>2013-05-19T11:51:28Z</time>
      </trkpt>
      <trkpt lat="59.9102926" lon="17.7139869">
        <ele>50.126</ele>
        <time>2013-05-19T11:51:29Z</time>
      </trkpt>
      <trkpt lat="59.9103197" lon="17.7139908">
        <ele>49.6453</ele>
        <time>2013-05-19T11:51:30Z</time>
      </trkpt>
      <trkpt lat="59.9103433" lon="17.7139939">
        <ele>48.684</ele>
        <time>2013-05-19T11:51:31Z</time>
      </trkpt>
      <trkpt lat="59.9103607" lon="17.7139998">
        <ele>47.7225</ele>
        <time>2013-05-19T11:51:32Z</time>
      </trkpt>
      <trkpt lat="59.9103755" lon="17.7140127">
        <ele>45.7999</ele>
        <time>2013-05-19T11:51:33Z</time>
      </trkpt>
      <trkpt lat="59.9103774" lon="17.7140351">
        <ele>44.8386</ele>
        <time>2013-05-19T11:51:34Z</time>
      </trkpt>
      <trkpt lat="59.9103785" lon="17.714063">
        <ele>43.8773</ele>
        <time>2013-05-19T11:51:35Z</time>
      </trkpt>
      <trkpt lat="59.9103935" lon="17.7140853">
        <ele>42.916</ele>
        <time>2013-05-19T11:51:36Z</time>
      </trkpt>
      <trkpt lat="59.9104038" lon="17.7141068">
        <ele>41.474</ele>
        <time>2013-05-19T11:51:37Z</time>
      </trkpt>
      <trkpt lat="59.9104184" lon="17.7141215">
        <ele>40.5128</ele>
        <time>2013-05-19T11:51:38Z</time>
      </trkpt>
      <trkpt lat="59.9104426" lon="17.7141442">
        <ele>39.5513</ele>
        <time>2013-05-19T11:51:39Z</time>
      </trkpt>
      <trkpt lat="59.9104546" lon="17.7141723">
        <ele>40.0321</ele>
        <time>2013-05-19T11:51:40Z</time>
      </trkpt>
      <trkpt lat="59.9104769" lon="17.7141946">
        <ele>39.5513</ele>
        <time>2013-05-19T11:51:41Z</time>
      </trkpt>
      <trkpt lat="59.9104893" lon="17.7142288">
        <ele>40.5128</ele>
        <time>2013-05-19T11:51:42Z</time>
      </trkpt>
      <trkpt lat="59.9104986" lon="17.7142563">
        <ele>40.5128</ele>
        <time>2013-05-19T11:51:43Z</time>
      </trkpt>
      <trkpt lat="59.9105085" lon="17.7142833">
        <ele>40.5128</ele>
        <time>2013-05-19T11:51:44Z</time>
      </trkpt>
      <trkpt lat="59.9105095" lon="17.714321">
        <ele>40.5128</ele>
        <time>2013-05-19T11:51:45Z</time>
      </trkpt>
      <trkpt lat="59.9105153" lon="17.714364">
        <ele>40.9934</ele>
        <time>2013-05-19T11:51:46Z</time>
      </trkpt>
      <trkpt lat="59.9105152" lon="17.714399">
        <ele>40.5128</ele>
        <time>2013-05-19T11:51:47Z</time>
      </trkpt>
      <trkpt lat="59.9105107" lon="17.7144299">
        <ele>40.5128</ele>
        <time>2013-05-19T11:51:48Z</time>
      </trkpt>
      <trkpt lat="59.9105054" lon="17.7144619">
        <ele>40.5128</ele>
        <time>2013-05-19T11:51:49Z</time>
      </trkpt>
      <trkpt lat="59.9104975" lon="17.7144929">
        <ele>40.0321</ele>
        <time>2013-05-19T11:51:50Z</time>
      </trkpt>
      <trkpt lat="59.910491" lon="17.7145229">
        <ele>40.0321</ele>
        <time>2013-05-19T11:51:51Z</time>
      </trkpt>
      <trkpt lat="59.9104842" lon="17.7145578">
        <ele>39.0707</ele>
        <time>2013-05-19T11:51:52Z</time>
      </trkpt>
      <trkpt lat="59.9104819" lon="17.7145908">
        <ele>38.1094</ele>
        <time>2013-05-19T11:51:53Z</time>
      </trkpt>
      <trkpt lat="59.9104798" lon="17.714627">
        <ele>38.1094</ele>
        <time>2013-05-19T11:51:54Z</time>
      </trkpt>
      <trkpt lat="59.9104805" lon="17.7146571">
        <ele>36.6675</ele>
        <time>2013-05-19T11:51:55Z</time>
      </trkpt>
      <trkpt lat="59.9104829" lon="17.7146876">
        <ele>35.7061</ele>
        <time>2013-05-19T11:51:56Z</time>
      </trkpt>
      <trkpt lat="59.9104881" lon="17.7147254">
        <ele>35.2255</ele>
        <time>2013-05-19T11:51:57Z</time>
      </trkpt>
      <trkpt lat="59.9104948" lon="17.7147556">
        <ele>34.7449</ele>
        <time>2013-05-19T11:51:58Z</time>
      </trkpt>
      <trkpt lat="59.9104954" lon="17.7147732">
        <ele>34.7449</ele>
        <time>2013-05-19T11:51:59Z</time>
      </trkpt>
      <trkpt lat="59.9104922" lon="17.7147894">
        <ele>34.2642</ele>
        <time>2013-05-19T11:52:00Z</time>
      </trkpt>
      <trkpt lat="59.9104893" lon="17.7148201">
        <ele>33.7834</ele>
        <time>2013-05-19T11:52:01Z</time>
      </trkpt>
      <trkpt lat="59.9104905" lon="17.7148502">
        <ele>33.7834</ele>
        <time>2013-05-19T11:52:02Z</time>
      </trkpt>
      <trkpt lat="59.9104895" lon="17.7148772">
        <ele>33.7834</ele>
        <time>2013-05-19T11:52:03Z</time>
      </trkpt>
      <trkpt lat="59.9104853" lon="17.71491">
        <ele>34.2642</ele>
        <time>2013-05-19T11:52:04Z</time>
      </trkpt>
      <trkpt lat="59.9104815" lon="17.7149384">
        <ele>33.7834</ele>
        <time>2013-05-19T11:52:05Z</time>
      </trkpt>
      <trkpt lat="59.9104716" lon="17.7149658">
        <ele>34.2642</ele>
        <time>2013-05-19T11:52:06Z</time>
      </trkpt>
      <trkpt lat="59.9104676" lon="17.7149966">
        <ele>33.7834</ele>
        <time>2013-05-19T11:52:07Z</time>
      </trkpt>
      <trkpt lat="59.9104638" lon="17.7150311">
        <ele>34.2642</ele>
        <time>2013-05-19T11:52:08Z</time>
      </trkpt>
      <trkpt lat="59.9104676" lon="17.7150705">
        <ele>32.8223</ele>
        <time>2013-05-19T11:52:09Z</time>
      </trkpt>
      <trkpt lat="59.9104715" lon="17.7151145">
        <ele>32.8223</ele>
        <time>2013-05-19T11:52:10Z</time>
      </trkpt>
      <trkpt lat="59.9104696" lon="17.7151451">
        <ele>33.7834</ele>
        <time>2013-05-19T11:52:11Z</time>
      </trkpt>
      <trkpt lat="59.9104694" lon="17.7151722">
        <ele>33.3029</ele>
        <time>2013-05-19T11:52:12Z</time>
      </trkpt>
      <trkpt lat="59.9104671" lon="17.7152143">
        <ele>33.3029</ele>
        <time>2013-05-19T11:52:13Z</time>
      </trkpt>
      <trkpt lat="59.910464" lon="17.7152535">
        <ele>32.8223</ele>
        <time>2013-05-19T11:52:14Z</time>
      </trkpt>
      <trkpt lat="59.9104602" lon="17.7152891">
        <ele>31.8607</ele>
        <time>2013-05-19T11:52:15Z</time>
      </trkpt>
      <trkpt lat="59.9104586" lon="17.7153224">
        <ele>31.8607</ele>
        <time>2013-05-19T11:52:16Z</time>
      </trkpt>
      <trkpt lat="59.9104609" lon="17.7153539">
        <ele>32.3416</ele>
        <time>2013-05-19T11:52:17Z</time>
      </trkpt>
      <trkpt lat="59.9104707" lon="17.7153938">
        <ele>31.3801</ele>
        <time>2013-05-19T11:52:18Z</time>
      </trkpt>
      <trkpt lat="59.9104835" lon="17.7154315">
        <ele>30.4188</ele>
        <time>2013-05-19T11:52:19Z</time>
      </trkpt>
      <trkpt lat="59.9104913" lon="17.7154621">
        <ele>29.9381</ele>
        <time>2013-05-19T11:52:20Z</time>
      </trkpt>
      <trkpt lat="59.9104971" lon="17.7154922">
        <ele>28.9769</ele>
        <time>2013-05-19T11:52:21Z</time>
      </trkpt>
      <trkpt lat="59.9105022" lon="17.7155212">
        <ele>28.9769</ele>
        <time>2013-05-19T11:52:22Z</time>
      </trkpt>
      <trkpt lat="59.9105091" lon="17.715545">
        <ele>28.9769</ele>
        <time>2013-05-19T11:52:23Z</time>
      </trkpt>
      <trkpt lat="59.9105142" lon="17.7155686">
        <ele>28.4962</ele>
        <time>2013-05-19T11:52:24Z</time>
      </trkpt>
      <trkpt lat="59.9105172" lon="17.7155953">
        <ele>28.4962</ele>
        <time>2013-05-19T11:52:25Z</time>
      </trkpt>
      <trkpt lat="59.9105241" lon="17.7156263">
        <ele>28.0155</ele>
        <time>2013-05-19T11:52:26Z</time>
      </trkpt>
      <trkpt lat="59.9105316" lon="17.7156559">
        <ele>27.5349</ele>
        <time>2013-05-19T11:52:27Z</time>
      </trkpt>
      <trkpt lat="59.9105381" lon="17.7156849">
        <ele>27.5349</ele>
        <time>2013-05-19T11:52:28Z</time>
      </trkpt>
      <trkpt lat="59.9105417" lon="17.7157186">
        <ele>27.0543</ele>
        <time>2013-05-19T11:52:29Z</time>
      </trkpt>
      <trkpt lat="59.9105413" lon="17.7157499">
        <ele>27.0543</ele>
        <time>2013-05-19T11:52:30Z</time>
      </trkpt>
      <trkpt lat="59.9105427" lon="17.7157837">
        <ele>26.5736</ele>
        <time>2013-05-19T11:52:31Z</time>
      </trkpt>
      <trkpt lat="59.9105442" lon="17.7158168">
        <ele>25.6123</ele>
        <time>2013-05-19T11:52:32Z</time>
      </trkpt>
      <trkpt lat="59.9105447" lon="17.7158475">
        <ele>25.1317</ele>
        <time>2013-05-19T11:52:33Z</time>
      </trkpt>
      <trkpt lat="59.9105447" lon="17.7158775">
        <ele>25.1317</ele>
        <time>2013-05-19T11:52:34Z</time>
      </trkpt>
      <trkpt lat="59.9105452" lon="17.7159112">
        <ele>24.651</ele>
        <time>2013-05-19T11:52:35Z</time>
      </trkpt>
      <trkpt lat="59.9105492" lon="17.7159435">
        <ele>24.651</ele>
        <time>2013-05-19T11:52:36Z</time>
      </trkpt>
      <trkpt lat="59.9105524" lon="17.7159867">
        <ele>23.6896</ele>
        <time>2013-05-19T11:52:37Z</time>
      </trkpt>
      <trkpt lat="59.9105682" lon="17.716016">
        <ele>23.6896</ele>
        <time>2013-05-19T11:52:38Z</time>
      </trkpt>
      <trkpt lat="59.9105783" lon="17.7160397">
        <ele>22.7283</ele>
        <time>2013-05-19T11:52:39Z</time>
      </trkpt>
      <trkpt lat="59.9105893" lon="17.7160665">
        <ele>21.767</ele>
        <time>2013-05-19T11:52:40Z</time>
      </trkpt>
      <trkpt lat="59.9106074" lon="17.7160832">
        <ele>20.325</ele>
        <time>2013-05-19T11:52:41Z</time>
      </trkpt>
      <trkpt lat="59.9106214" lon="17.7161028">
        <ele>19.3638</ele>
        <time>2013-05-19T11:52:42Z</time>
      </trkpt>
      <trkpt lat="59.9106391" lon="17.7161241">
        <ele>19.3638</ele>
        <time>2013-05-19T11:52:43Z</time>
      </trkpt>
      <trkpt lat="59.9106598" lon="17.7161351">
        <ele>18.4023</ele>
        <time>2013-05-19T11:52:44Z</time>
      </trkpt>
      <trkpt lat="59.9106779" lon="17.7161494">
        <ele>17.4412</ele>
        <time>2013-05-19T11:52:45Z</time>
      </trkpt>
      <trkpt lat="59.910688" lon="17.7161687">
        <ele>16.9604</ele>
        <time>2013-05-19T11:52:46Z</time>
      </trkpt>
      <trkpt lat="59.9107005" lon="17.7161811">
        <ele>15.5184</ele>
        <time>2013-05-19T11:52:47Z</time>
      </trkpt>
      <trkpt lat="59.9107111" lon="17.7161954">
        <ele>15.0377</ele>
        <time>2013-05-19T11:52:48Z</time>
      </trkpt>
      <trkpt lat="59.9107173" lon="17.7162141">
        <ele>14.0764</ele>
        <time>2013-05-19T11:52:49Z</time>
      </trkpt>
      <trkpt lat="59.9107166" lon="17.7162381">
        <ele>15.5184</ele>
        <time>2013-05-19T11:52:50Z</time>
      </trkpt>
      <trkpt lat="59.9107256" lon="17.7162535">
        <ele>14.557</ele>
        <time>2013-05-19T11:52:51Z</time>
      </trkpt>
      <trkpt lat="59.9107369" lon="17.7162735">
        <ele>14.0764</ele>
        <time>2013-05-19T11:52:52Z</time>
      </trkpt>
      <trkpt lat="59.9107468" lon="17.716298">
        <ele>13.5958</ele>
        <time>2013-05-19T11:52:53Z</time>
      </trkpt>
      <trkpt lat="59.9107585" lon="17.7163157">
        <ele>12.6344</ele>
        <time>2013-05-19T11:52:54Z</time>
      </trkpt>
      <trkpt lat="59.9107744" lon="17.7163294">
        <ele>13.1151</ele>
        <time>2013-05-19T11:52:55Z</time>
      </trkpt>
      <trkpt lat="59.9107814" lon="17.7163451">
        <ele>14.557</ele>
        <time>2013-05-19T11:52:56Z</time>
      </trkpt>
      <trkpt lat="59.9107907" lon="17.7163563">
        <ele>16.4797</ele>
        <time>2013-05-19T11:52:57Z</time>
      </trkpt>
      <trkpt lat="59.9108006" lon="17.7163738">
        <ele>18.4023</ele>
        <time>2013-05-19T11:52:58Z</time>
      </trkpt>
      <trkpt lat="59.9108113" lon="17.7163863">
        <ele>19.8444</ele>
        <time>2013-05-19T11:52:59Z</time>
      </trkpt>
      <trkpt lat="59.9108171" lon="17.7163966">
        <ele>20.325</ele>
        <time>2013-05-19T11:53:00Z</time>
      </trkpt>
      <trkpt lat="59.9108222" lon="17.7164131">
        <ele>21.2864</ele>
        <time>2013-05-19T11:53:01Z</time>
      </trkpt>
      <trkpt lat="59.9108328" lon="17.7164228">
        <ele>21.2864</ele>
        <time>2013-05-19T11:53:02Z</time>
      </trkpt>
      <trkpt lat="59.9108394" lon="17.7164311">
        <ele>20.8057</ele>
        <time>2013-05-19T11:53:03Z</time>
      </trkpt>
      <trkpt lat="59.9108514" lon="17.7164389">
        <ele>20.8057</ele>
        <time>2013-05-19T11:53:04Z</time>
      </trkpt>
      <trkpt lat="59.9108681" lon="17.7164437">
        <ele>20.8057</ele>
        <time>2013-05-19T11:53:05Z</time>
      </trkpt>
      <trkpt lat="59.910883" lon="17.7164484">
        <ele>21.2864</ele>
        <time>2013-05-19T11:53:06Z</time>
      </trkpt>
      <trkpt lat="59.9108961" lon="17.7164464">
        <ele>21.767</ele>
        <time>2013-05-19T11:53:07Z</time>
      </trkpt>
      <trkpt lat="59.9109001" lon="17.7164505">
        <ele>22.2476</ele>
        <time>2013-05-19T11:53:08Z</time>
      </trkpt>
      <trkpt lat="59.9109099" lon="17.7164541">
        <ele>22.7283</ele>
        <time>2013-05-19T11:53:09Z</time>
      </trkpt>
      <trkpt lat="59.9109186" lon="17.7164577">
        <ele>23.209</ele>
        <time>2013-05-19T11:53:10Z</time>
      </trkpt>
      <trkpt lat="59.910925" lon="17.7164603">
        <ele>23.209</ele>
        <time>2013-05-19T11:53:11Z</time>
      </trkpt>
      <trkpt lat="59.9109326" lon="17.7164625">
        <ele>24.651</ele>
        <time>2013-05-19T11:53:12Z</time>
      </trkpt>
      <trkpt lat="59.910941" lon="17.7164586">
        <ele>25.1317</ele>
        <time>2013-05-19T11:53:13Z</time>
      </trkpt>
      <trkpt lat="59.9109546" lon="17.716455">
        <ele>25.6123</ele>
        <time>2013-05-19T11:53:14Z</time>
      </trkpt>
      <trkpt lat="59.9109696" lon="17.716455">
        <ele>26.5736</ele>
        <time>2013-05-19T11:53:15Z</time>
      </trkpt>
      <trkpt lat="59.9109847" lon="17.7164469">
        <ele>27.5349</ele>
        <time>2013-05-19T11:53:16Z</time>
      </trkpt>
      <trkpt lat="59.9109963" lon="17.7164399">
        <ele>28.0155</ele>
        <time>2013-05-19T11:53:17Z</time>
      </trkpt>
      <trkpt lat="59.9110042" lon="17.7164408">
        <ele>28.0155</ele>
        <time>2013-05-19T11:53:18Z</time>
      </trkpt>
      <trkpt lat="59.9110111" lon="17.7164444">
        <ele>28.4962</ele>
        <time>2013-05-19T11:53:19Z</time>
      </trkpt>
      <trkpt lat="59.9110229" lon="17.7164427">
        <ele>28.9769</ele>
        <time>2013-05-19T11:53:20Z</time>
      </trkpt>
      <trkpt lat="59.9110383" lon="17.7164381">
        <ele>29.4575</ele>
        <time>2013-05-19T11:53:21Z</time>
      </trkpt>
      <trkpt lat="59.911053" lon="17.7164335">
        <ele>29.9381</ele>
        <time>2013-05-19T11:53:22Z</time>
      </trkpt>
      <trkpt lat="59.9110612" lon="17.7164322">
        <ele>30.8995</ele>
        <time>2013-05-19T11:53:23Z</time>
      </trkpt>
      <trkpt lat="59.9110674" lon="17.7164338">
        <ele>31.3801</ele>
        <time>2013-05-19T11:53:24Z</time>
      </trkpt>
      <trkpt lat="59.9110823" lon="17.7164286">
        <ele>31.8607</ele>
        <time>2013-05-19T11:53:25Z</time>
      </trkpt>
      <trkpt lat="59.9110981" lon="17.7164289">
        <ele>32.3416</ele>
        <time>2013-05-19T11:53:26Z</time>
      </trkpt>
      <trkpt lat="59.9111095" lon="17.7164251">
        <ele>32.3416</ele>
        <time>2013-05-19T11:53:27Z</time>
      </trkpt>
      <trkpt lat="59.9111213" lon="17.7164206">
        <ele>33.3029</ele>
        <time>2013-05-19T11:53:28Z</time>
      </trkpt>
      <trkpt lat="59.9111357" lon="17.7164148">
        <ele>33.7834</ele>
        <time>2013-05-19T11:53:29Z</time>
      </trkpt>
      <trkpt lat="59.9111497" lon="17.7164075">
        <ele>33.7834</ele>
        <time>2013-05-19T11:53:30Z</time>
      </trkpt>
      <trkpt lat="59.9111648" lon="17.7164038">
        <ele>34.2642</ele>
        <time>2013-05-19T11:53:31Z</time>
      </trkpt>
      <trkpt lat="59.9111787" lon="17.7163992">
        <ele>34.2642</ele>
        <time>2013-05-19T11:53:32Z</time>
      </trkpt>
      <trkpt lat="59.9111928" lon="17.7163944">
        <ele>34.2642</ele>
        <time>2013-05-19T11:53:33Z</time>
      </trkpt>
      <trkpt lat="59.9112076" lon="17.7163945">
        <ele>34.7449</ele>
        <time>2013-05-19T11:53:34Z</time>
      </trkpt>
      <trkpt lat="59.9112239" lon="17.7163909">
        <ele>35.2255</ele>
        <time>2013-05-19T11:53:35Z</time>
      </trkpt>
      <trkpt lat="59.9112364" lon="17.7163882">
        <ele>35.2255</ele>
        <time>2013-05-19T11:53:36Z</time>
      </trkpt>
      <trkpt lat="59.9112548" lon="17.7163858">
        <ele>35.7061</ele>
        <time>2013-05-19T11:53:37Z</time>
      </trkpt>
      <trkpt lat="59.9112658" lon="17.716382">
        <ele>35.2255</ele>
        <time>2013-05-19T11:53:38Z</time>
      </trkpt>
      <trkpt lat="59.9112796" lon="17.7163776">
        <ele>35.7061</ele>
        <time>2013-05-19T11:53:39Z</time>
      </trkpt>
      <trkpt lat="59.9112954" lon="17.7163796">
        <ele>35.7061</ele>
        <time>2013-05-19T11:53:40Z</time>
      </trkpt>
      <trkpt lat="59.9113133" lon="17.7163857">
        <ele>36.1868</ele>
        <time>2013-05-19T11:53:41Z</time>
      </trkpt>
      <trkpt lat="59.9113274" lon="17.7163935">
        <ele>36.1868</ele>
        <time>2013-05-19T11:53:42Z</time>
      </trkpt>
      <trkpt lat="59.9113421" lon="17.7163962">
        <ele>36.1868</ele>
        <time>2013-05-19T11:53:43Z</time>
      </trkpt>
      <trkpt lat="59.9113565" lon="17.7163962">
        <ele>36.1868</ele>
        <time>2013-05-19T11:53:44Z</time>
      </trkpt>
      <trkpt lat="59.9113679" lon="17.7164011">
        <ele>36.1868</ele>
        <time>2013-05-19T11:53:45Z</time>
      </trkpt>
      <trkpt lat="59.9113791" lon="17.7164089">
        <ele>36.1868</ele>
        <time>2013-05-19T11:53:46Z</time>
      </trkpt>
      <trkpt lat="59.9113887" lon="17.7164184">
        <ele>35.7061</ele>
        <time>2013-05-19T11:53:47Z</time>
      </trkpt>
      <trkpt lat="59.9114026" lon="17.716424">
        <ele>35.7061</ele>
        <time>2013-05-19T11:53:48Z</time>
      </trkpt>
      <trkpt lat="59.9114167" lon="17.7164231">
        <ele>35.7061</ele>
        <time>2013-05-19T11:53:49Z</time>
      </trkpt>
      <trkpt lat="59.9114311" lon="17.7164187">
        <ele>35.2255</ele>
        <time>2013-05-19T11:53:50Z</time>
      </trkpt>
      <trkpt lat="59.9114452" lon="17.7164152">
        <ele>35.2255</ele>
        <time>2013-05-19T11:53:51Z</time>
      </trkpt>
      <trkpt lat="59.9114591" lon="17.7164091">
        <ele>35.2255</ele>
        <time>2013-05-19T11:53:52Z</time>
      </trkpt>
      <trkpt lat="59.9114731" lon="17.7164026">
        <ele>35.2255</ele>
        <time>2013-05-19T11:53:53Z</time>
      </trkpt>
      <trkpt lat="59.9114868" lon="17.7163964">
        <ele>34.7449</ele>
        <time>2013-05-19T11:53:54Z</time>
      </trkpt>
      <trkpt lat="59.9115029" lon="17.7163799">
        <ele>35.2255</ele>
        <time>2013-05-19T11:53:55Z</time>
      </trkpt>
      <trkpt lat="59.9115145" lon="17.7163614">
        <ele>34.7449</ele>
        <time>2013-05-19T11:53:56Z</time>
      </trkpt>
      <trkpt lat="59.911529" lon="17.7163458">
        <ele>35.2255</ele>
        <time>2013-05-19T11:53:57Z</time>
      </trkpt>
      <trkpt lat="59.9115449" lon="17.7163323">
        <ele>34.7449</ele>
        <time>2013-05-19T11:53:58Z</time>
      </trkpt>
      <trkpt lat="59.9115619" lon="17.7163236">
        <ele>35.2255</ele>
        <time>2013-05-19T11:53:59Z</time>
      </trkpt>
      <trkpt lat="59.9115871" lon="17.7163137">
        <ele>36.1868</ele>
        <time>2013-05-19T11:54:00Z</time>
      </trkpt>
      <trkpt lat="59.9116067" lon="17.7163056">
        <ele>36.1868</ele>
        <time>2013-05-19T11:54:01Z</time>
      </trkpt>
      <trkpt lat="59.9116222" lon="17.7162956">
        <ele>36.6675</ele>
        <time>2013-05-19T11:54:02Z</time>
      </trkpt>
      <trkpt lat="59.9116362" lon="17.7162801">
        <ele>37.1481</ele>
        <time>2013-05-19T11:54:03Z</time>
      </trkpt>
      <trkpt lat="59.9116523" lon="17.7162649">
        <ele>37.6287</ele>
        <time>2013-05-19T11:54:04Z</time>
      </trkpt>
      <trkpt lat="59.9116672" lon="17.7162493">
        <ele>38.1094</ele>
        <time>2013-05-19T11:54:05Z</time>
      </trkpt>
      <trkpt lat="59.9116797" lon="17.7162315">
        <ele>38.1094</ele>
        <time>2013-05-19T11:54:06Z</time>
      </trkpt>
      <trkpt lat="59.9116901" lon="17.7162147">
        <ele>38.5901</ele>
        <time>2013-05-19T11:54:07Z</time>
      </trkpt>
      <trkpt lat="59.911702" lon="17.7161971">
        <ele>38.5901</ele>
        <time>2013-05-19T11:54:08Z</time>
      </trkpt>
      <trkpt lat="59.9117151" lon="17.71618">
        <ele>38.5901</ele>
        <time>2013-05-19T11:54:09Z</time>
      </trkpt>
      <trkpt lat="59.9117309" lon="17.7161633">
        <ele>38.5901</ele>
        <time>2013-05-19T11:54:10Z</time>
      </trkpt>
      <trkpt lat="59.9117424" lon="17.7161437">
        <ele>38.5901</ele>
        <time>2013-05-19T11:54:11Z</time>
      </trkpt>
      <trkpt lat="59.9117512" lon="17.7161215">
        <ele>38.5901</ele>
        <time>2013-05-19T11:54:12Z</time>
      </trkpt>
      <trkpt lat="59.9117584" lon="17.716106">
        <ele>38.5901</ele>
        <time>2013-05-19T11:54:13Z</time>
      </trkpt>
      <trkpt lat="59.9117657" lon="17.716087">
        <ele>39.0707</ele>
        <time>2013-05-19T11:54:14Z</time>
      </trkpt>
      <trkpt lat="59.911775" lon="17.7160647">
        <ele>39.0707</ele>
        <time>2013-05-19T11:54:15Z</time>
      </trkpt>
      <trkpt lat="59.9117863" lon="17.7160454">
        <ele>39.0707</ele>
        <time>2013-05-19T11:54:16Z</time>
      </trkpt>
      <trkpt lat="59.9117972" lon="17.7160242">
        <ele>39.5513</ele>
        <time>2013-05-19T11:54:17Z</time>
      </trkpt>
      <trkpt lat="59.9118075" lon="17.7160029">
        <ele>40.0321</ele>
        <time>2013-05-19T11:54:18Z</time>
      </trkpt>
      <trkpt lat="59.9118155" lon="17.7159817">
        <ele>40.0321</ele>
        <time>2013-05-19T11:54:19Z</time>
      </trkpt>
      <trkpt lat="59.9118256" lon="17.7159567">
        <ele>40.0321</ele>
        <time>2013-05-19T11:54:20Z</time>
      </trkpt>
      <trkpt lat="59.9118365" lon="17.7159179">
        <ele>39.5513</ele>
        <time>2013-05-19T11:54:21Z</time>
      </trkpt>
      <trkpt lat="59.911849" lon="17.7158824">
        <ele>39.5513</ele>
        <time>2013-05-19T11:54:22Z</time>
      </trkpt>
      <trkpt lat="59.911861" lon="17.7158575">
        <ele>39.5513</ele>
        <time>2013-05-19T11:54:23Z</time>
      </trkpt>
      <trkpt lat="59.9118729" lon="17.715832">
        <ele>40.0321</ele>
        <time>2013-05-19T11:54:24Z</time>
      </trkpt>
      <trkpt lat="59.9118833" lon="17.7158076">
        <ele>40.0321</ele>
        <time>2013-05-19T11:54:25Z</time>
      </trkpt>
      <trkpt lat="59.911892" lon="17.7157881">
        <ele>39.5513</ele>
        <time>2013-05-19T11:54:26Z</time>
      </trkpt>
      <trkpt lat="59.9119029" lon="17.7157651">
        <ele>40.0321</ele>
        <time>2013-05-19T11:54:27Z</time>
      </trkpt>
      <trkpt lat="59.9119132" lon="17.7157398">
        <ele>39.5513</ele>
        <time>2013-05-19T11:54:28Z</time>
      </trkpt>
      <trkpt lat="59.9119217" lon="17.7157204">
        <ele>39.5513</ele>
        <time>2013-05-19T11:54:29Z</time>
      </trkpt>
      <trkpt lat="59.9119304" lon="17.7157035">
        <ele>39.5513</ele>
        <time>2013-05-19T11:54:30Z</time>
      </trkpt>
      <trkpt lat="59.9119413" lon="17.7156873">
        <ele>39.5513</ele>
        <time>2013-05-19T11:54:31Z</time>
      </trkpt>
      <trkpt lat="59.9119528" lon="17.7156719">
        <ele>39.5513</ele>
        <time>2013-05-19T11:54:32Z</time>
      </trkpt>
      <trkpt lat="59.9119644" lon="17.7156498">
        <ele>39.5513</ele>
        <time>2013-05-19T11:54:33Z</time>
      </trkpt>
      <trkpt lat="59.9119767" lon="17.7156289">
        <ele>39.5513</ele>
        <time>2013-05-19T11:54:34Z</time>
      </trkpt>
      <trkpt lat="59.9119878" lon="17.7156116">
        <ele>39.5513</ele>
        <time>2013-05-19T11:54:35Z</time>
      </trkpt>
      <trkpt lat="59.9119999" lon="17.715593">
        <ele>39.5513</ele>
        <time>2013-05-19T11:54:36Z</time>
      </trkpt>
      <trkpt lat="59.9120123" lon="17.7155746">
        <ele>39.5513</ele>
        <time>2013-05-19T11:54:37Z</time>
      </trkpt>
      <trkpt lat="59.912023" lon="17.7155574">
        <ele>39.5513</ele>
        <time>2013-05-19T11:54:38Z</time>
      </trkpt>
      <trkpt lat="59.9120336" lon="17.7155422">
        <ele>39.5513</ele>
        <time>2013-05-19T11:54:39Z</time>
      </trkpt>
      <trkpt lat="59.9120442" lon="17.7155286">
        <ele>39.5513</ele>
        <time>2013-05-19T11:54:40Z</time>
      </trkpt>
      <trkpt lat="59.9120544" lon="17.7155153">
        <ele>40.0321</ele>
        <time>2013-05-19T11:54:41Z</time>
      </trkpt>
      <trkpt lat="59.912066" lon="17.7154987">
        <ele>40.0321</ele>
        <time>2013-05-19T11:54:42Z</time>
      </trkpt>
      <trkpt lat="59.9120775" lon="17.7154835">
        <ele>40.5128</ele>
        <time>2013-05-19T11:54:43Z</time>
      </trkpt>
      <trkpt lat="59.9120895" lon="17.715469">
        <ele>40.9934</ele>
        <time>2013-05-19T11:54:44Z</time>
      </trkpt>
      <trkpt lat="59.9121024" lon="17.7154501">
        <ele>40.9934</ele>
        <time>2013-05-19T11:54:45Z</time>
      </trkpt>
      <trkpt lat="59.912116" lon="17.715431">
        <ele>41.474</ele>
        <time>2013-05-19T11:54:46Z</time>
      </trkpt>
      <trkpt lat="59.9121297" lon="17.7154124">
        <ele>41.474</ele>
        <time>2013-05-19T11:54:47Z</time>
      </trkpt>
      <trkpt lat="59.9121442" lon="17.7153948">
        <ele>41.9547</ele>
        <time>2013-05-19T11:54:48Z</time>
      </trkpt>
      <trkpt lat="59.912158" lon="17.7153803">
        <ele>41.9547</ele>
        <time>2013-05-19T11:54:49Z</time>
      </trkpt>
      <trkpt lat="59.9121709" lon="17.7153718">
        <ele>41.9547</ele>
        <time>2013-05-19T11:54:50Z</time>
      </trkpt>
      <trkpt lat="59.9121856" lon="17.7153622">
        <ele>41.9547</ele>
        <time>2013-05-19T11:54:51Z</time>
      </trkpt>
      <trkpt lat="59.912198" lon="17.7153528">
        <ele>41.9547</ele>
        <time>2013-05-19T11:54:52Z</time>
      </trkpt>
      <trkpt lat="59.9122131" lon="17.7153428">
        <ele>41.9547</ele>
        <time>2013-05-19T11:54:53Z</time>
      </trkpt>
      <trkpt lat="59.9122294" lon="17.7153377">
        <ele>41.474</ele>
        <time>2013-05-19T11:54:54Z</time>
      </trkpt>
      <trkpt lat="59.9122449" lon="17.715339">
        <ele>41.474</ele>
        <time>2013-05-19T11:54:55Z</time>
      </trkpt>
      <trkpt lat="59.9122582" lon="17.7153425">
        <ele>41.474</ele>
        <time>2013-05-19T11:54:56Z</time>
      </trkpt>
      <trkpt lat="59.9122693" lon="17.715348">
        <ele>40.5128</ele>
        <time>2013-05-19T11:54:57Z</time>
      </trkpt>
      <trkpt lat="59.9122833" lon="17.7153583">
        <ele>40.5128</ele>
        <time>2013-05-19T11:54:58Z</time>
      </trkpt>
      <trkpt lat="59.9122967" lon="17.7153706">
        <ele>39.5513</ele>
        <time>2013-05-19T11:54:59Z</time>
      </trkpt>
      <trkpt lat="59.9123105" lon="17.7153891">
        <ele>39.0707</ele>
        <time>2013-05-19T11:55:00Z</time>
      </trkpt>
      <trkpt lat="59.9123245" lon="17.7154019">
        <ele>38.5901</ele>
        <time>2013-05-19T11:55:01Z</time>
      </trkpt>
      <trkpt lat="59.9123385" lon="17.7154083">
        <ele>38.1094</ele>
        <time>2013-05-19T11:55:02Z</time>
      </trkpt>
      <trkpt lat="59.9123532" lon="17.7154153">
        <ele>37.6287</ele>
        <time>2013-05-19T11:55:03Z</time>
      </trkpt>
      <trkpt lat="59.9123713" lon="17.715422">
        <ele>37.6287</ele>
        <time>2013-05-19T11:55:04Z</time>
      </trkpt>
      <trkpt lat="59.9123877" lon="17.7154295">
        <ele>37.1481</ele>
        <time>2013-05-19T11:55:05Z</time>
      </trkpt>
      <trkpt lat="59.9124042" lon="17.7154378">
        <ele>36.6675</ele>
        <time>2013-05-19T11:55:06Z</time>
      </trkpt>
      <trkpt lat="59.9124179" lon="17.7154438">
        <ele>36.6675</ele>
        <time>2013-05-19T11:55:07Z</time>
      </trkpt>
      <trkpt lat="59.9124308" lon="17.7154469">
        <ele>36.6675</ele>
        <time>2013-05-19T11:55:08Z</time>
      </trkpt>
      <trkpt lat="59.9124452" lon="17.7154508">
        <ele>36.1868</ele>
        <time>2013-05-19T11:55:09Z</time>
      </trkpt>
      <trkpt lat="59.9124558" lon="17.7154568">
        <ele>35.7061</ele>
        <time>2013-05-19T11:55:10Z</time>
      </trkpt>
      <trkpt lat="59.9124781" lon="17.7154757">
        <ele>36.6675</ele>
        <time>2013-05-19T11:55:11Z</time>
      </trkpt>
      <trkpt lat="59.9125038" lon="17.7155096">
        <ele>36.6675</ele>
        <time>2013-05-19T11:55:12Z</time>
      </trkpt>
      <trkpt lat="59.9125246" lon="17.7155428">
        <ele>36.1868</ele>
        <time>2013-05-19T11:55:13Z</time>
      </trkpt>
      <trkpt lat="59.9125443" lon="17.7155718">
        <ele>36.1868</ele>
        <time>2013-05-19T11:55:14Z</time>
      </trkpt>
      <trkpt lat="59.9125592" lon="17.7155992">
        <ele>36.1868</ele>
        <time>2013-05-19T11:55:15Z</time>
      </trkpt>
      <trkpt lat="59.9125746" lon="17.7156123">
        <ele>35.7061</ele>
        <time>2013-05-19T11:55:16Z</time>
      </trkpt>
      <trkpt lat="59.9125899" lon="17.7156062">
        <ele>35.2255</ele>
        <time>2013-05-19T11:55:17Z</time>
      </trkpt>
      <trkpt lat="59.9126033" lon="17.715603">
        <ele>34.7449</ele>
        <time>2013-05-19T11:55:18Z</time>
      </trkpt>
      <trkpt lat="59.9126183" lon="17.7156092">
        <ele>34.2642</ele>
        <time>2013-05-19T11:55:19Z</time>
      </trkpt>
      <trkpt lat="59.9126339" lon="17.7156192">
        <ele>33.7834</ele>
        <time>2013-05-19T11:55:20Z</time>
      </trkpt>
      <trkpt lat="59.9126401" lon="17.7156346">
        <ele>33.3029</ele>
        <time>2013-05-19T11:55:21Z</time>
      </trkpt>
      <trkpt lat="59.9126478" lon="17.7156494">
        <ele>32.8223</ele>
        <time>2013-05-19T11:55:22Z</time>
      </trkpt>
      <trkpt lat="59.9126563" lon="17.7156676">
        <ele>32.8223</ele>
        <time>2013-05-19T11:55:23Z</time>
      </trkpt>
      <trkpt lat="59.9126614" lon="17.7156867">
        <ele>31.8607</ele>
        <time>2013-05-19T11:55:24Z</time>
      </trkpt>
      <trkpt lat="59.912666" lon="17.7157069">
        <ele>31.8607</ele>
        <time>2013-05-19T11:55:25Z</time>
      </trkpt>
      <trkpt lat="59.9126716" lon="17.7157346">
        <ele>31.8607</ele>
        <time>2013-05-19T11:55:26Z</time>
      </trkpt>
      <trkpt lat="59.91268" lon="17.7157624">
        <ele>31.8607</ele>
        <time>2013-05-19T11:55:27Z</time>
      </trkpt>
      <trkpt lat="59.9126883" lon="17.7157849">
        <ele>31.8607</ele>
        <time>2013-05-19T11:55:28Z</time>
      </trkpt>
      <trkpt lat="59.9126987" lon="17.7158013">
        <ele>31.8607</ele>
        <time>2013-05-19T11:55:29Z</time>
      </trkpt>
      <trkpt lat="59.9127096" lon="17.7158205">
        <ele>32.3416</ele>
        <time>2013-05-19T11:55:30Z</time>
      </trkpt>
      <trkpt lat="59.9127136" lon="17.7158442">
        <ele>32.3416</ele>
        <time>2013-05-19T11:55:31Z</time>
      </trkpt>
      <trkpt lat="59.9127235" lon="17.715864">
        <ele>32.3416</ele>
        <time>2013-05-19T11:55:32Z</time>
      </trkpt>
      <trkpt lat="59.9127317" lon="17.7158838">
        <ele>32.3416</ele>
        <time>2013-05-19T11:55:33Z</time>
      </trkpt>
      <trkpt lat="59.9127363" lon="17.715905">
        <ele>31.8607</ele>
        <time>2013-05-19T11:55:34Z</time>
      </trkpt>
      <trkpt lat="59.9127368" lon="17.7159334">
        <ele>31.3801</ele>
        <time>2013-05-19T11:55:35Z</time>
      </trkpt>
      <trkpt lat="59.9127441" lon="17.7159553">
        <ele>31.3801</ele>
        <time>2013-05-19T11:55:36Z</time>
      </trkpt>
      <trkpt lat="59.9127505" lon="17.715974">
        <ele>30.8995</ele>
        <time>2013-05-19T11:55:37Z</time>
      </trkpt>
      <trkpt lat="59.9127634" lon="17.7159992">
        <ele>31.3801</ele>
        <time>2013-05-19T11:55:38Z</time>
      </trkpt>
      <trkpt lat="59.9127704" lon="17.7160263">
        <ele>31.3801</ele>
        <time>2013-05-19T11:55:39Z</time>
      </trkpt>
      <trkpt lat="59.9127773" lon="17.7160542">
        <ele>31.3801</ele>
        <time>2013-05-19T11:55:40Z</time>
      </trkpt>
      <trkpt lat="59.9127883" lon="17.7160708">
        <ele>31.3801</ele>
        <time>2013-05-19T11:55:41Z</time>
      </trkpt>
      <trkpt lat="59.912801" lon="17.7160862">
        <ele>31.8607</ele>
        <time>2013-05-19T11:55:42Z</time>
      </trkpt>
      <trkpt lat="59.9128116" lon="17.716105">
        <ele>31.3801</ele>
        <time>2013-05-19T11:55:43Z</time>
      </trkpt>
      <trkpt lat="59.9128272" lon="17.716119">
        <ele>32.3416</ele>
        <time>2013-05-19T11:55:44Z</time>
      </trkpt>
      <trkpt lat="59.9128379" lon="17.7161349">
        <ele>32.3416</ele>
        <time>2013-05-19T11:55:45Z</time>
      </trkpt>
      <trkpt lat="59.9128471" lon="17.7161563">
        <ele>31.8607</ele>
        <time>2013-05-19T11:55:46Z</time>
      </trkpt>
      <trkpt lat="59.9128603" lon="17.7161794">
        <ele>32.8223</ele>
        <time>2013-05-19T11:55:47Z</time>
      </trkpt>
      <trkpt lat="59.9128706" lon="17.7162001">
        <ele>32.8223</ele>
        <time>2013-05-19T11:55:48Z</time>
      </trkpt>
      <trkpt lat="59.9128856" lon="17.7162158">
        <ele>33.7834</ele>
        <time>2013-05-19T11:55:49Z</time>
      </trkpt>
      <trkpt lat="59.9128954" lon="17.7162338">
        <ele>33.3029</ele>
        <time>2013-05-19T11:55:50Z</time>
      </trkpt>
      <trkpt lat="59.9129074" lon="17.7162531">
        <ele>33.7834</ele>
        <time>2013-05-19T11:55:51Z</time>
      </trkpt>
      <trkpt lat="59.9129176" lon="17.71627">
        <ele>33.7834</ele>
        <time>2013-05-19T11:55:52Z</time>
      </trkpt>
      <trkpt lat="59.912929" lon="17.7162916">
        <ele>33.7834</ele>
        <time>2013-05-19T11:55:53Z</time>
      </trkpt>
      <trkpt lat="59.9129448" lon="17.7163132">
        <ele>34.2642</ele>
        <time>2013-05-19T11:55:54Z</time>
      </trkpt>
      <trkpt lat="59.9129571" lon="17.7163334">
        <ele>34.7449</ele>
        <time>2013-05-19T11:55:55Z</time>
      </trkpt>
      <trkpt lat="59.9129689" lon="17.7163557">
        <ele>34.2642</ele>
        <time>2013-05-19T11:55:56Z</time>
      </trkpt>
      <trkpt lat="59.9129872" lon="17.716367">
        <ele>34.7449</ele>
        <time>2013-05-19T11:55:57Z</time>
      </trkpt>
      <trkpt lat="59.9130063" lon="17.7163711">
        <ele>35.7061</ele>
        <time>2013-05-19T11:55:58Z</time>
      </trkpt>
      <trkpt lat="59.9130155" lon="17.7163863">
        <ele>35.2255</ele>
        <time>2013-05-19T11:55:59Z</time>
      </trkpt>
      <trkpt lat="59.913024" lon="17.716411">
        <ele>35.2255</ele>
        <time>2013-05-19T11:56:00Z</time>
      </trkpt>
      <trkpt lat="59.9130343" lon="17.7164318">
        <ele>35.7061</ele>
        <time>2013-05-19T11:56:01Z</time>
      </trkpt>
      <trkpt lat="59.9130432" lon="17.7164524">
        <ele>35.7061</ele>
        <time>2013-05-19T11:56:02Z</time>
      </trkpt>
      <trkpt lat="59.9130481" lon="17.7164791">
        <ele>35.2255</ele>
        <time>2013-05-19T11:56:03Z</time>
      </trkpt>
      <trkpt lat="59.9130582" lon="17.7165054">
        <ele>35.7061</ele>
        <time>2013-05-19T11:56:04Z</time>
      </trkpt>
      <trkpt lat="59.913068" lon="17.7165309">
        <ele>36.1868</ele>
        <time>2013-05-19T11:56:05Z</time>
      </trkpt>
      <trkpt lat="59.9130768" lon="17.7165578">
        <ele>36.1868</ele>
        <time>2013-05-19T11:56:06Z</time>
      </trkpt>
      <trkpt lat="59.9130859" lon="17.7165816">
        <ele>36.6675</ele>
        <time>2013-05-19T11:56:07Z</time>
      </trkpt>
      <trkpt lat="59.9130943" lon="17.7166044">
        <ele>37.1481</ele>
        <time>2013-05-19T11:56:08Z</time>
      </trkpt>
      <trkpt lat="59.9131" lon="17.716636">
        <ele>36.6675</ele>
        <time>2013-05-19T11:56:09Z</time>
      </trkpt>
      <trkpt lat="59.9131063" lon="17.7166743">
        <ele>36.6675</ele>
        <time>2013-05-19T11:56:10Z</time>
      </trkpt>
      <trkpt lat="59.9131131" lon="17.7167086">
        <ele>36.6675</ele>
        <time>2013-05-19T11:56:11Z</time>
      </trkpt>
      <trkpt lat="59.913117" lon="17.7167358">
        <ele>37.1481</ele>
        <time>2013-05-19T11:56:12Z</time>
      </trkpt>
      <trkpt lat="59.9131258" lon="17.7167697">
        <ele>37.1481</ele>
        <time>2013-05-19T11:56:13Z</time>
      </trkpt>
      <trkpt lat="59.9131354" lon="17.7168054">
        <ele>37.6287</ele>
        <time>2013-05-19T11:56:14Z</time>
      </trkpt>
      <trkpt lat="59.9131457" lon="17.7168341">
        <ele>38.1094</ele>
        <time>2013-05-19T11:56:15Z</time>
      </trkpt>
      <trkpt lat="59.9131546" lon="17.716858">
        <ele>38.1094</ele>
        <time>2013-05-19T11:56:16Z</time>
      </trkpt>
      <trkpt lat="59.9131597" lon="17.7168839">
        <ele>38.1094</ele>
        <time>2013-05-19T11:56:17Z</time>
      </trkpt>
      <trkpt lat="59.9131706" lon="17.7169077">
        <ele>38.1094</ele>
        <time>2013-05-19T11:56:18Z</time>
      </trkpt>
      <trkpt lat="59.9131815" lon="17.7169302">
        <ele>38.1094</ele>
        <time>2013-05-19T11:56:19Z</time>
      </trkpt>
      <trkpt lat="59.9131928" lon="17.7169514">
        <ele>38.5901</ele>
        <time>2013-05-19T11:56:20Z</time>
      </trkpt>
      <trkpt lat="59.9132017" lon="17.7169727">
        <ele>38.5901</ele>
        <time>2013-05-19T11:56:21Z</time>
      </trkpt>
      <trkpt lat="59.9132103" lon="17.7169984">
        <ele>38.5901</ele>
        <time>2013-05-19T11:56:22Z</time>
      </trkpt>
      <trkpt lat="59.9132203" lon="17.717028">
        <ele>38.5901</ele>
        <time>2013-05-19T11:56:23Z</time>
      </trkpt>
      <trkpt lat="59.9132275" lon="17.7170517">
        <ele>38.1094</ele>
        <time>2013-05-19T11:56:24Z</time>
      </trkpt>
      <trkpt lat="59.9132346" lon="17.7170745">
        <ele>38.1094</ele>
        <time>2013-05-19T11:56:25Z</time>
      </trkpt>
      <trkpt lat="59.9132405" lon="17.7170978">
        <ele>37.6287</ele>
        <time>2013-05-19T11:56:26Z</time>
      </trkpt>
      <trkpt lat="59.9132461" lon="17.7171192">
        <ele>38.1094</ele>
        <time>2013-05-19T11:56:27Z</time>
      </trkpt>
      <trkpt lat="59.9132519" lon="17.7171419">
        <ele>38.1094</ele>
        <time>2013-05-19T11:56:28Z</time>
      </trkpt>
      <trkpt lat="59.9132603" lon="17.7171642">
        <ele>38.5901</ele>
        <time>2013-05-19T11:56:29Z</time>
      </trkpt>
      <trkpt lat="59.9132664" lon="17.7171875">
        <ele>38.5901</ele>
        <time>2013-05-19T11:56:30Z</time>
      </trkpt>
      <trkpt lat="59.9132721" lon="17.7172078">
        <ele>38.1094</ele>
        <time>2013-05-19T11:56:31Z</time>
      </trkpt>
      <trkpt lat="59.9132789" lon="17.7172323">
        <ele>38.1094</ele>
        <time>2013-05-19T11:56:32Z</time>
      </trkpt>
      <trkpt lat="59.9132845" lon="17.7172566">
        <ele>38.5901</ele>
        <time>2013-05-19T11:56:33Z</time>
      </trkpt>
      <trkpt lat="59.9132876" lon="17.7172815">
        <ele>38.1094</ele>
        <time>2013-05-19T11:56:34Z</time>
      </trkpt>
      <trkpt lat="59.9132917" lon="17.7173063">
        <ele>37.6287</ele>
        <time>2013-05-19T11:56:35Z</time>
      </trkpt>
      <trkpt lat="59.9132964" lon="17.717329">
        <ele>37.1481</ele>
        <time>2013-05-19T11:56:36Z</time>
      </trkpt>
      <trkpt lat="59.9133025" lon="17.7173496">
        <ele>37.1481</ele>
        <time>2013-05-19T11:56:37Z</time>
      </trkpt>
      <trkpt lat="59.9133115" lon="17.7173658">
        <ele>37.1481</ele>
        <time>2013-05-19T11:56:38Z</time>
      </trkpt>
      <trkpt lat="59.9133196" lon="17.7173818">
        <ele>37.1481</ele>
        <time>2013-05-19T11:56:39Z</time>
      </trkpt>
      <trkpt lat="59.913328" lon="17.7174003">
        <ele>37.1481</ele>
        <time>2013-05-19T11:56:40Z</time>
      </trkpt>
      <trkpt lat="59.9133401" lon="17.7174197">
        <ele>37.6287</ele>
        <time>2013-05-19T11:56:41Z</time>
      </trkpt>
      <trkpt lat="59.9133528" lon="17.7174421">
        <ele>38.1094</ele>
        <time>2013-05-19T11:56:42Z</time>
      </trkpt>
      <trkpt lat="59.9133602" lon="17.7174622">
        <ele>38.1094</ele>
        <time>2013-05-19T11:56:43Z</time>
      </trkpt>
      <trkpt lat="59.9133724" lon="17.7174787">
        <ele>38.5901</ele>
        <time>2013-05-19T11:56:44Z</time>
      </trkpt>
      <trkpt lat="59.9133823" lon="17.7174978">
        <ele>38.5901</ele>
        <time>2013-05-19T11:56:45Z</time>
      </trkpt>
      <trkpt lat="59.9133944" lon="17.7175167">
        <ele>39.0707</ele>
        <time>2013-05-19T11:56:46Z</time>
      </trkpt>
      <trkpt lat="59.9134074" lon="17.7175348">
        <ele>39.5513</ele>
        <time>2013-05-19T11:56:47Z</time>
      </trkpt>
      <trkpt lat="59.9134156" lon="17.7175554">
        <ele>39.5513</ele>
        <time>2013-05-19T11:56:48Z</time>
      </trkpt>
      <trkpt lat="59.9134218" lon="17.7175783">
        <ele>39.5513</ele>
        <time>2013-05-19T11:56:49Z</time>
      </trkpt>
      <trkpt lat="59.9134274" lon="17.7175982">
        <ele>39.5513</ele>
        <time>2013-05-19T11:56:50Z</time>
      </trkpt>
      <trkpt lat="59.9134347" lon="17.717616">
        <ele>39.5513</ele>
        <time>2013-05-19T11:56:51Z</time>
      </trkpt>
      <trkpt lat="59.9134456" lon="17.7176372">
        <ele>39.0707</ele>
        <time>2013-05-19T11:56:52Z</time>
      </trkpt>
      <trkpt lat="59.9134565" lon="17.7176611">
        <ele>39.5513</ele>
        <time>2013-05-19T11:56:53Z</time>
      </trkpt>
      <trkpt lat="59.9134693" lon="17.7176808">
        <ele>40.0321</ele>
        <time>2013-05-19T11:56:54Z</time>
      </trkpt>
      <trkpt lat="59.9134814" lon="17.7176994">
        <ele>40.0321</ele>
        <time>2013-05-19T11:56:55Z</time>
      </trkpt>
      <trkpt lat="59.9134942" lon="17.7177205">
        <ele>40.0321</ele>
        <time>2013-05-19T11:56:56Z</time>
      </trkpt>
      <trkpt lat="59.9135009" lon="17.7177409">
        <ele>39.5513</ele>
        <time>2013-05-19T11:56:57Z</time>
      </trkpt>
      <trkpt lat="59.9135046" lon="17.7177584">
        <ele>39.0707</ele>
        <time>2013-05-19T11:56:58Z</time>
      </trkpt>
      <trkpt lat="59.9135119" lon="17.7177803">
        <ele>39.0707</ele>
        <time>2013-05-19T11:56:59Z</time>
      </trkpt>
      <trkpt lat="59.9135214" lon="17.7178008">
        <ele>39.0707</ele>
        <time>2013-05-19T11:57:00Z</time>
      </trkpt>
      <trkpt lat="59.9135316" lon="17.7178191">
        <ele>39.0707</ele>
        <time>2013-05-19T11:57:01Z</time>
      </trkpt>
      <trkpt lat="59.9135409" lon="17.7178372">
        <ele>39.0707</ele>
        <time>2013-05-19T11:57:02Z</time>
      </trkpt>
      <trkpt lat="59.9135516" lon="17.7178569">
        <ele>39.0707</ele>
        <time>2013-05-19T11:57:03Z</time>
      </trkpt>
      <trkpt lat="59.913564" lon="17.7178766">
        <ele>39.0707</ele>
        <time>2013-05-19T11:57:04Z</time>
      </trkpt>
      <trkpt lat="59.9135737" lon="17.7178964">
        <ele>38.5901</ele>
        <time>2013-05-19T11:57:05Z</time>
      </trkpt>
      <trkpt lat="59.9135838" lon="17.717916">
        <ele>38.5901</ele>
        <time>2013-05-19T11:57:06Z</time>
      </trkpt>
      <trkpt lat="59.9135958" lon="17.7179326">
        <ele>39.0707</ele>
        <time>2013-05-19T11:57:07Z</time>
      </trkpt>
      <trkpt lat="59.9136109" lon="17.7179473">
        <ele>39.5513</ele>
        <time>2013-05-19T11:57:08Z</time>
      </trkpt>
      <trkpt lat="59.9136274" lon="17.7179584">
        <ele>39.5513</ele>
        <time>2013-05-19T11:57:09Z</time>
      </trkpt>
      <trkpt lat="59.9136452" lon="17.7179661">
        <ele>40.5128</ele>
        <time>2013-05-19T11:57:10Z</time>
      </trkpt>
      <trkpt lat="59.9136606" lon="17.7179707">
        <ele>40.5128</ele>
        <time>2013-05-19T11:57:11Z</time>
      </trkpt>
      <trkpt lat="59.913678" lon="17.7179693">
        <ele>40.5128</ele>
        <time>2013-05-19T11:57:12Z</time>
      </trkpt>
      <trkpt lat="59.9136932" lon="17.7179694">
        <ele>40.5128</ele>
        <time>2013-05-19T11:57:13Z</time>
      </trkpt>
      <trkpt lat="59.9137051" lon="17.7179715">
        <ele>40.0321</ele>
        <time>2013-05-19T11:57:14Z</time>
      </trkpt>
      <trkpt lat="59.9137185" lon="17.7179722">
        <ele>40.0321</ele>
        <time>2013-05-19T11:57:15Z</time>
      </trkpt>
      <trkpt lat="59.9137332" lon="17.7179678">
        <ele>39.5513</ele>
        <time>2013-05-19T11:57:16Z</time>
      </trkpt>
      <trkpt lat="59.9137496" lon="17.7179626">
        <ele>39.5513</ele>
        <time>2013-05-19T11:57:17Z</time>
      </trkpt>
      <trkpt lat="59.9137659" lon="17.7179584">
        <ele>39.5513</ele>
        <time>2013-05-19T11:57:18Z</time>
      </trkpt>
      <trkpt lat="59.9137829" lon="17.7179511">
        <ele>39.5513</ele>
        <time>2013-05-19T11:57:19Z</time>
      </trkpt>
      <trkpt lat="59.9137974" lon="17.7179461">
        <ele>39.5513</ele>
        <time>2013-05-19T11:57:20Z</time>
      </trkpt>
      <trkpt lat="59.9138094" lon="17.7179424">
        <ele>39.5513</ele>
        <time>2013-05-19T11:57:21Z</time>
      </trkpt>
      <trkpt lat="59.9138205" lon="17.7179382">
        <ele>39.5513</ele>
        <time>2013-05-19T11:57:22Z</time>
      </trkpt>
      <trkpt lat="59.9138326" lon="17.7179371">
        <ele>39.5513</ele>
        <time>2013-05-19T11:57:23Z</time>
      </trkpt>
      <trkpt lat="59.9138467" lon="17.7179367">
        <ele>39.0707</ele>
        <time>2013-05-19T11:57:24Z</time>
      </trkpt>
      <trkpt lat="59.9138594" lon="17.7179339">
        <ele>39.0707</ele>
        <time>2013-05-19T11:57:25Z</time>
      </trkpt>
      <trkpt lat="59.9138712" lon="17.7179267">
        <ele>39.0707</ele>
        <time>2013-05-19T11:57:26Z</time>
      </trkpt>
      <trkpt lat="59.9138811" lon="17.717918">
        <ele>38.5901</ele>
        <time>2013-05-19T11:57:27Z</time>
      </trkpt>
      <trkpt lat="59.9138926" lon="17.7179087">
        <ele>38.1094</ele>
        <time>2013-05-19T11:57:28Z</time>
      </trkpt>
      <trkpt lat="59.9139056" lon="17.7178963">
        <ele>38.1094</ele>
        <time>2013-05-19T11:57:29Z</time>
      </trkpt>
      <trkpt lat="59.9139156" lon="17.7178857">
        <ele>38.1094</ele>
        <time>2013-05-19T11:57:30Z</time>
      </trkpt>
      <trkpt lat="59.913929" lon="17.7178828">
        <ele>37.6287</ele>
        <time>2013-05-19T11:57:31Z</time>
      </trkpt>
      <trkpt lat="59.9139491" lon="17.7178838">
        <ele>37.6287</ele>
        <time>2013-05-19T11:57:32Z</time>
      </trkpt>
      <trkpt lat="59.9139688" lon="17.7178899">
        <ele>38.1094</ele>
        <time>2013-05-19T11:57:33Z</time>
      </trkpt>
      <trkpt lat="59.9139855" lon="17.7178978">
        <ele>38.1094</ele>
        <time>2013-05-19T11:57:34Z</time>
      </trkpt>
      <trkpt lat="59.914002" lon="17.7179082">
        <ele>38.1094</ele>
        <time>2013-05-19T11:57:35Z</time>
      </trkpt>
      <trkpt lat="59.9140175" lon="17.7179253">
        <ele>38.1094</ele>
        <time>2013-05-19T11:57:36Z</time>
      </trkpt>
      <trkpt lat="59.914033" lon="17.7179454">
        <ele>38.5901</ele>
        <time>2013-05-19T11:57:37Z</time>
      </trkpt>
      <trkpt lat="59.9140476" lon="17.7179652">
        <ele>38.5901</ele>
        <time>2013-05-19T11:57:38Z</time>
      </trkpt>
      <trkpt lat="59.9140656" lon="17.7179812">
        <ele>38.5901</ele>
        <time>2013-05-19T11:57:39Z</time>
      </trkpt>
      <trkpt lat="59.9140821" lon="17.7179969">
        <ele>38.5901</ele>
        <time>2013-05-19T11:57:40Z</time>
      </trkpt>
      <trkpt lat="59.9140945" lon="17.7180148">
        <ele>39.0707</ele>
        <time>2013-05-19T11:57:41Z</time>
      </trkpt>
      <trkpt lat="59.9141071" lon="17.7180373">
        <ele>39.0707</ele>
        <time>2013-05-19T11:57:42Z</time>
      </trkpt>
      <trkpt lat="59.9141206" lon="17.7180588">
        <ele>39.5513</ele>
        <time>2013-05-19T11:57:43Z</time>
      </trkpt>
      <trkpt lat="59.9141335" lon="17.718079">
        <ele>40.0321</ele>
        <time>2013-05-19T11:57:44Z</time>
      </trkpt>
      <trkpt lat="59.9141461" lon="17.7181005">
        <ele>40.0321</ele>
        <time>2013-05-19T11:57:45Z</time>
      </trkpt>
      <trkpt lat="59.9141609" lon="17.7181227">
        <ele>40.5128</ele>
        <time>2013-05-19T11:57:46Z</time>
      </trkpt>
      <trkpt lat="59.9141719" lon="17.7181453">
        <ele>40.0321</ele>
        <time>2013-05-19T11:57:47Z</time>
      </trkpt>
      <trkpt lat="59.9141849" lon="17.7181656">
        <ele>40.5128</ele>
        <time>2013-05-19T11:57:48Z</time>
      </trkpt>
      <trkpt lat="59.9142" lon="17.7181867">
        <ele>40.9934</ele>
        <time>2013-05-19T11:57:49Z</time>
      </trkpt>
      <trkpt lat="59.9142128" lon="17.7182077">
        <ele>40.9934</ele>
        <time>2013-05-19T11:57:50Z</time>
      </trkpt>
      <trkpt lat="59.9142257" lon="17.7182257">
        <ele>40.9934</ele>
        <time>2013-05-19T11:57:51Z</time>
      </trkpt>
      <trkpt lat="59.9142434" lon="17.7182407">
        <ele>40.9934</ele>
        <time>2013-05-19T11:57:52Z</time>
      </trkpt>
      <trkpt lat="59.914261" lon="17.7182501">
        <ele>40.9934</ele>
        <time>2013-05-19T11:57:53Z</time>
      </trkpt>
      <trkpt lat="59.9142742" lon="17.7182593">
        <ele>41.474</ele>
        <time>2013-05-19T11:57:54Z</time>
      </trkpt>
      <trkpt lat="59.9142847" lon="17.7182707">
        <ele>40.9934</ele>
        <time>2013-05-19T11:57:55Z</time>
      </trkpt>
      <trkpt lat="59.9142983" lon="17.7182846">
        <ele>41.474</ele>
        <time>2013-05-19T11:57:56Z</time>
      </trkpt>
      <trkpt lat="59.9143129" lon="17.7182973">
        <ele>41.474</ele>
        <time>2013-05-19T11:57:57Z</time>
      </trkpt>
      <trkpt lat="59.9143262" lon="17.7183069">
        <ele>40.9934</ele>
        <time>2013-05-19T11:57:58Z</time>
      </trkpt>
      <trkpt lat="59.9143418" lon="17.7183107">
        <ele>40.9934</ele>
        <time>2013-05-19T11:57:59Z</time>
      </trkpt>
      <trkpt lat="59.9143573" lon="17.7183174">
        <ele>40.9934</ele>
        <time>2013-05-19T11:58:00Z</time>
      </trkpt>
      <trkpt lat="59.9143742" lon="17.7183283">
        <ele>40.9934</ele>
        <time>2013-05-19T11:58:01Z</time>
      </trkpt>
      <trkpt lat="59.9143888" lon="17.7183401">
        <ele>40.9934</ele>
        <time>2013-05-19T11:58:02Z</time>
      </trkpt>
      <trkpt lat="59.9144029" lon="17.7183515">
        <ele>40.5128</ele>
        <time>2013-05-19T11:58:03Z</time>
      </trkpt>
      <trkpt lat="59.9144154" lon="17.7183657">
        <ele>40.9934</ele>
        <time>2013-05-19T11:58:04Z</time>
      </trkpt>
      <trkpt lat="59.9144245" lon="17.7183835">
        <ele>41.474</ele>
        <time>2013-05-19T11:58:05Z</time>
      </trkpt>
      <trkpt lat="59.9144351" lon="17.7183993">
        <ele>41.474</ele>
        <time>2013-05-19T11:58:06Z</time>
      </trkpt>
      <trkpt lat="59.9144447" lon="17.7184147">
        <ele>41.474</ele>
        <time>2013-05-19T11:58:07Z</time>
      </trkpt>
      <trkpt lat="59.9144524" lon="17.7184314">
        <ele>40.9934</ele>
        <time>2013-05-19T11:58:08Z</time>
      </trkpt>
      <trkpt lat="59.9144619" lon="17.7184491">
        <ele>40.9934</ele>
        <time>2013-05-19T11:58:09Z</time>
      </trkpt>
      <trkpt lat="59.9144732" lon="17.7184682">
        <ele>41.474</ele>
        <time>2013-05-19T11:58:10Z</time>
      </trkpt>
      <trkpt lat="59.9144846" lon="17.7184857">
        <ele>41.9547</ele>
        <time>2013-05-19T11:58:11Z</time>
      </trkpt>
      <trkpt lat="59.9144949" lon="17.7185022">
        <ele>41.9547</ele>
        <time>2013-05-19T11:58:12Z</time>
      </trkpt>
      <trkpt lat="59.9145065" lon="17.7185197">
        <ele>41.9547</ele>
        <time>2013-05-19T11:58:13Z</time>
      </trkpt>
      <trkpt lat="59.9145162" lon="17.7185382">
        <ele>41.9547</ele>
        <time>2013-05-19T11:58:14Z</time>
      </trkpt>
      <trkpt lat="59.9145246" lon="17.7185588">
        <ele>41.9547</ele>
        <time>2013-05-19T11:58:15Z</time>
      </trkpt>
      <trkpt lat="59.914533" lon="17.7185785">
        <ele>41.9547</ele>
        <time>2013-05-19T11:58:16Z</time>
      </trkpt>
      <trkpt lat="59.9145423" lon="17.7185971">
        <ele>41.474</ele>
        <time>2013-05-19T11:58:17Z</time>
      </trkpt>
      <trkpt lat="59.9145521" lon="17.7186153">
        <ele>41.474</ele>
        <time>2013-05-19T11:58:18Z</time>
      </trkpt>
      <trkpt lat="59.9145612" lon="17.718632">
        <ele>41.474</ele>
        <time>2013-05-19T11:58:19Z</time>
      </trkpt>
      <trkpt lat="59.9145711" lon="17.7186469">
        <ele>41.474</ele>
        <time>2013-05-19T11:58:20Z</time>
      </trkpt>
      <trkpt lat="59.9145816" lon="17.7186629">
        <ele>41.9547</ele>
        <time>2013-05-19T11:58:21Z</time>
      </trkpt>
      <trkpt lat="59.9145892" lon="17.718683">
        <ele>41.9547</ele>
        <time>2013-05-19T11:58:22Z</time>
      </trkpt>
      <trkpt lat="59.9145985" lon="17.7187052">
        <ele>42.916</ele>
        <time>2013-05-19T11:58:23Z</time>
      </trkpt>
      <trkpt lat="59.9146049" lon="17.7187257">
        <ele>42.916</ele>
        <time>2013-05-19T11:58:24Z</time>
      </trkpt>
      <trkpt lat="59.9146147" lon="17.7187489">
        <ele>43.3966</ele>
        <time>2013-05-19T11:58:25Z</time>
      </trkpt>
      <trkpt lat="59.914621" lon="17.7187713">
        <ele>43.3966</ele>
        <time>2013-05-19T11:58:26Z</time>
      </trkpt>
      <trkpt lat="59.9146293" lon="17.7187953">
        <ele>43.3966</ele>
        <time>2013-05-19T11:58:27Z</time>
      </trkpt>
      <trkpt lat="59.91464" lon="17.7188207">
        <ele>43.8773</ele>
        <time>2013-05-19T11:58:28Z</time>
      </trkpt>
      <trkpt lat="59.91465" lon="17.7188448">
        <ele>43.3966</ele>
        <time>2013-05-19T11:58:29Z</time>
      </trkpt>
      <trkpt lat="59.9146604" lon="17.718871">
        <ele>43.3966</ele>
        <time>2013-05-19T11:58:30Z</time>
      </trkpt>
      <trkpt lat="59.9146686" lon="17.7188951">
        <ele>42.916</ele>
        <time>2013-05-19T11:58:31Z</time>
      </trkpt>
      <trkpt lat="59.9146775" lon="17.7189163">
        <ele>42.4354</ele>
        <time>2013-05-19T11:58:32Z</time>
      </trkpt>
      <trkpt lat="59.9146899" lon="17.7189368">
        <ele>42.916</ele>
        <time>2013-05-19T11:58:33Z</time>
      </trkpt>
      <trkpt lat="59.9146996" lon="17.7189498">
        <ele>42.4354</ele>
        <time>2013-05-19T11:58:34Z</time>
      </trkpt>
      <trkpt lat="59.9147088" lon="17.7189702">
        <ele>41.474</ele>
        <time>2013-05-19T11:58:35Z</time>
      </trkpt>
      <trkpt lat="59.9147142" lon="17.7190041">
        <ele>40.5128</ele>
        <time>2013-05-19T11:58:36Z</time>
      </trkpt>
      <trkpt lat="59.9147236" lon="17.7190362">
        <ele>40.5128</ele>
        <time>2013-05-19T11:58:37Z</time>
      </trkpt>
      <trkpt lat="59.9147377" lon="17.7190619">
        <ele>40.5128</ele>
        <time>2013-05-19T11:58:38Z</time>
      </trkpt>
      <trkpt lat="59.91475" lon="17.719089">
        <ele>40.5128</ele>
        <time>2013-05-19T11:58:39Z</time>
      </trkpt>
      <trkpt lat="59.9147579" lon="17.719116">
        <ele>40.5128</ele>
        <time>2013-05-19T11:58:40Z</time>
      </trkpt>
      <trkpt lat="59.9147612" lon="17.7191441">
        <ele>39.5513</ele>
        <time>2013-05-19T11:58:41Z</time>
      </trkpt>
      <trkpt lat="59.9147635" lon="17.7191726">
        <ele>39.0707</ele>
        <time>2013-05-19T11:58:42Z</time>
      </trkpt>
      <trkpt lat="59.914762" lon="17.7192001">
        <ele>39.0707</ele>
        <time>2013-05-19T11:58:43Z</time>
      </trkpt>
      <trkpt lat="59.9147549" lon="17.7192368">
        <ele>38.1094</ele>
        <time>2013-05-19T11:58:44Z</time>
      </trkpt>
      <trkpt lat="59.9147584" lon="17.7192814">
        <ele>38.5901</ele>
        <time>2013-05-19T11:58:45Z</time>
      </trkpt>
      <trkpt lat="59.91477" lon="17.7193164">
        <ele>38.5901</ele>
        <time>2013-05-19T11:58:46Z</time>
      </trkpt>
      <trkpt lat="59.9147804" lon="17.7193502">
        <ele>39.0707</ele>
        <time>2013-05-19T11:58:47Z</time>
      </trkpt>
      <trkpt lat="59.9147895" lon="17.7193879">
        <ele>39.0707</ele>
        <time>2013-05-19T11:58:48Z</time>
      </trkpt>
      <trkpt lat="59.9147987" lon="17.7194258">
        <ele>39.0707</ele>
        <time>2013-05-19T11:58:49Z</time>
      </trkpt>
      <trkpt lat="59.9148006" lon="17.7194546">
        <ele>38.1094</ele>
        <time>2013-05-19T11:58:50Z</time>
      </trkpt>
      <trkpt lat="59.9147997" lon="17.719486">
        <ele>37.6287</ele>
        <time>2013-05-19T11:58:51Z</time>
      </trkpt>
      <trkpt lat="59.9148024" lon="17.7195192">
        <ele>37.6287</ele>
        <time>2013-05-19T11:58:52Z</time>
      </trkpt>
      <trkpt lat="59.9148062" lon="17.7195445">
        <ele>38.1094</ele>
        <time>2013-05-19T11:58:53Z</time>
      </trkpt>
      <trkpt lat="59.9148065" lon="17.7195674">
        <ele>37.6287</ele>
        <time>2013-05-19T11:58:54Z</time>
      </trkpt>
      <trkpt lat="59.9148075" lon="17.7196016">
        <ele>37.1481</ele>
        <time>2013-05-19T11:58:55Z</time>
      </trkpt>
      <trkpt lat="59.9148112" lon="17.7196389">
        <ele>37.1481</ele>
        <time>2013-05-19T11:58:56Z</time>
      </trkpt>
      <trkpt lat="59.9148122" lon="17.7196679">
        <ele>37.1481</ele>
        <time>2013-05-19T11:58:57Z</time>
      </trkpt>
      <trkpt lat="59.9148107" lon="17.7196942">
        <ele>37.1481</ele>
        <time>2013-05-19T11:58:58Z</time>
      </trkpt>
      <trkpt lat="59.9148085" lon="17.7197278">
        <ele>37.1481</ele>
        <time>2013-05-19T11:58:59Z</time>
      </trkpt>
      <trkpt lat="59.914809" lon="17.7197565">
        <ele>37.1481</ele>
        <time>2013-05-19T11:59:00Z</time>
      </trkpt>
      <trkpt lat="59.914811" lon="17.7197839">
        <ele>37.1481</ele>
        <time>2013-05-19T11:59:01Z</time>
      </trkpt>
      <trkpt lat="59.9148101" lon="17.7198133">
        <ele>37.1481</ele>
        <time>2013-05-19T11:59:02Z</time>
      </trkpt>
      <trkpt lat="59.9148105" lon="17.7198399">
        <ele>37.1481</ele>
        <time>2013-05-19T11:59:03Z</time>
      </trkpt>
      <trkpt lat="59.9148086" lon="17.7198632">
        <ele>36.6675</ele>
        <time>2013-05-19T11:59:04Z</time>
      </trkpt>
      <trkpt lat="59.9148095" lon="17.7198885">
        <ele>36.6675</ele>
        <time>2013-05-19T11:59:05Z</time>
      </trkpt>
      <trkpt lat="59.9148107" lon="17.7199177">
        <ele>36.6675</ele>
        <time>2013-05-19T11:59:06Z</time>
      </trkpt>
      <trkpt lat="59.9148116" lon="17.7199445">
        <ele>37.1481</ele>
        <time>2013-05-19T11:59:07Z</time>
      </trkpt>
      <trkpt lat="59.9148104" lon="17.7199709">
        <ele>37.6287</ele>
        <time>2013-05-19T11:59:08Z</time>
      </trkpt>
      <trkpt lat="59.9148099" lon="17.7199954">
        <ele>37.1481</ele>
        <time>2013-05-19T11:59:09Z</time>
      </trkpt>
      <trkpt lat="59.914813" lon="17.7200319">
        <ele>37.1481</ele>
        <time>2013-05-19T11:59:10Z</time>
      </trkpt>
      <trkpt lat="59.9148173" lon="17.720061">
        <ele>37.1481</ele>
        <time>2013-05-19T11:59:11Z</time>
      </trkpt>
      <trkpt lat="59.9148208" lon="17.7200739">
        <ele>37.1481</ele>
        <time>2013-05-19T11:59:12Z</time>
      </trkpt>
      <trkpt lat="59.9148266" lon="17.7200926">
        <ele>37.1481</ele>
        <time>2013-05-19T11:59:13Z</time>
      </trkpt>
      <trkpt lat="59.9148326" lon="17.7201166">
        <ele>37.1481</ele>
        <time>2013-05-19T11:59:14Z</time>
      </trkpt>
      <trkpt lat="59.9148396" lon="17.7201398">
        <ele>37.6287</ele>
        <time>2013-05-19T11:59:15Z</time>
      </trkpt>
      <trkpt lat="59.9148448" lon="17.7201632">
        <ele>37.6287</ele>
        <time>2013-05-19T11:59:16Z</time>
      </trkpt>
      <trkpt lat="59.9148525" lon="17.7201886">
        <ele>38.1094</ele>
        <time>2013-05-19T11:59:17Z</time>
      </trkpt>
      <trkpt lat="59.9148593" lon="17.7202123">
        <ele>38.1094</ele>
        <time>2013-05-19T11:59:18Z</time>
      </trkpt>
      <trkpt lat="59.9148707" lon="17.7202336">
        <ele>38.5901</ele>
        <time>2013-05-19T11:59:19Z</time>
      </trkpt>
      <trkpt lat="59.9148806" lon="17.7202556">
        <ele>38.5901</ele>
        <time>2013-05-19T11:59:20Z</time>
      </trkpt>
      <trkpt lat="59.9148971" lon="17.72028">
        <ele>39.5513</ele>
        <time>2013-05-19T11:59:21Z</time>
      </trkpt>
      <trkpt lat="59.9149101" lon="17.7203035">
        <ele>39.5513</ele>
        <time>2013-05-19T11:59:22Z</time>
      </trkpt>
      <trkpt lat="59.9149236" lon="17.7203267">
        <ele>40.0321</ele>
        <time>2013-05-19T11:59:23Z</time>
      </trkpt>
      <trkpt lat="59.9149381" lon="17.7203475">
        <ele>40.0321</ele>
        <time>2013-05-19T11:59:24Z</time>
      </trkpt>
      <trkpt lat="59.9149516" lon="17.7203667">
        <ele>40.0321</ele>
        <time>2013-05-19T11:59:25Z</time>
      </trkpt>
      <trkpt lat="59.9149655" lon="17.7203771">
        <ele>40.0321</ele>
        <time>2013-05-19T11:59:26Z</time>
      </trkpt>
      <trkpt lat="59.9149784" lon="17.7203894">
        <ele>40.0321</ele>
        <time>2013-05-19T11:59:27Z</time>
      </trkpt>
      <trkpt lat="59.9149888" lon="17.7204075">
        <ele>39.5513</ele>
        <time>2013-05-19T11:59:28Z</time>
      </trkpt>
      <trkpt lat="59.9150005" lon="17.7204205">
        <ele>40.0321</ele>
        <time>2013-05-19T11:59:29Z</time>
      </trkpt>
      <trkpt lat="59.91501" lon="17.720436">
        <ele>40.0321</ele>
        <time>2013-05-19T11:59:30Z</time>
      </trkpt>
      <trkpt lat="59.9150207" lon="17.7204535">
        <ele>40.5128</ele>
        <time>2013-05-19T11:59:31Z</time>
      </trkpt>
      <trkpt lat="59.9150336" lon="17.7204666">
        <ele>40.5128</ele>
        <time>2013-05-19T11:59:32Z</time>
      </trkpt>
      <trkpt lat="59.9150551" lon="17.7204768">
        <ele>41.474</ele>
        <time>2013-05-19T11:59:33Z</time>
      </trkpt>
      <trkpt lat="59.9150738" lon="17.7204878">
        <ele>41.9547</ele>
        <time>2013-05-19T11:59:34Z</time>
      </trkpt>
      <trkpt lat="59.9150914" lon="17.7204983">
        <ele>42.4354</ele>
        <time>2013-05-19T11:59:35Z</time>
      </trkpt>
      <trkpt lat="59.9151044" lon="17.7205066">
        <ele>42.4354</ele>
        <time>2013-05-19T11:59:36Z</time>
      </trkpt>
      <trkpt lat="59.9151167" lon="17.7205121">
        <ele>42.4354</ele>
        <time>2013-05-19T11:59:37Z</time>
      </trkpt>
      <trkpt lat="59.9151292" lon="17.7205148">
        <ele>42.4354</ele>
        <time>2013-05-19T11:59:38Z</time>
      </trkpt>
      <trkpt lat="59.9151416" lon="17.7205128">
        <ele>42.4354</ele>
        <time>2013-05-19T11:59:39Z</time>
      </trkpt>
      <trkpt lat="59.9151514" lon="17.7205079">
        <ele>41.9547</ele>
        <time>2013-05-19T11:59:40Z</time>
      </trkpt>
      <trkpt lat="59.915164" lon="17.7205044">
        <ele>41.474</ele>
        <time>2013-05-19T11:59:41Z</time>
      </trkpt>
      <trkpt lat="59.9151763" lon="17.720498">
        <ele>41.9547</ele>
        <time>2013-05-19T11:59:42Z</time>
      </trkpt>
      <trkpt lat="59.9151852" lon="17.7204977">
        <ele>40.9934</ele>
        <time>2013-05-19T11:59:43Z</time>
      </trkpt>
      <trkpt lat="59.9151945" lon="17.7204973">
        <ele>40.9934</ele>
        <time>2013-05-19T11:59:44Z</time>
      </trkpt>
      <trkpt lat="59.9152032" lon="17.7205002">
        <ele>40.5128</ele>
        <time>2013-05-19T11:59:45Z</time>
      </trkpt>
      <trkpt lat="59.9152163" lon="17.720498">
        <ele>40.5128</ele>
        <time>2013-05-19T11:59:46Z</time>
      </trkpt>
      <trkpt lat="59.9152295" lon="17.7204971">
        <ele>40.5128</ele>
        <time>2013-05-19T11:59:47Z</time>
      </trkpt>
      <trkpt lat="59.9152414" lon="17.7205068">
        <ele>40.5128</ele>
        <time>2013-05-19T11:59:48Z</time>
      </trkpt>
      <trkpt lat="59.9152595" lon="17.7205205">
        <ele>41.474</ele>
        <time>2013-05-19T11:59:49Z</time>
      </trkpt>
      <trkpt lat="59.9152711" lon="17.7205272">
        <ele>41.474</ele>
        <time>2013-05-19T11:59:50Z</time>
      </trkpt>
      <trkpt lat="59.9152816" lon="17.720532">
        <ele>41.9547</ele>
        <time>2013-05-19T11:59:51Z</time>
      </trkpt>
      <trkpt lat="59.9152902" lon="17.7205374">
        <ele>41.9547</ele>
        <time>2013-05-19T11:59:52Z</time>
      </trkpt>
      <trkpt lat="59.9152994" lon="17.7205464">
        <ele>41.9547</ele>
        <time>2013-05-19T11:59:53Z</time>
      </trkpt>
      <trkpt lat="59.9153088" lon="17.7205577">
        <ele>41.9547</ele>
        <time>2013-05-19T11:59:54Z</time>
      </trkpt>
      <trkpt lat="59.9153229" lon="17.7205708">
        <ele>42.916</ele>
        <time>2013-05-19T11:59:55Z</time>
      </trkpt>
      <trkpt lat="59.9153327" lon="17.7205871">
        <ele>42.916</ele>
        <time>2013-05-19T11:59:56Z</time>
      </trkpt>
      <trkpt lat="59.9153442" lon="17.7205981">
        <ele>42.916</ele>
        <time>2013-05-19T11:59:57Z</time>
      </trkpt>
      <trkpt lat="59.9153546" lon="17.7206104">
        <ele>43.3966</ele>
        <time>2013-05-19T11:59:58Z</time>
      </trkpt>
      <trkpt lat="59.9153647" lon="17.7206223">
        <ele>42.916</ele>
        <time>2013-05-19T11:59:59Z</time>
      </trkpt>
      <trkpt lat="59.9153747" lon="17.7206354">
        <ele>43.3966</ele>
        <time>2013-05-19T12:00:00Z</time>
      </trkpt>
      <trkpt lat="59.9153887" lon="17.7206439">
        <ele>42.916</ele>
        <time>2013-05-19T12:00:01Z</time>
      </trkpt>
      <trkpt lat="59.915411" lon="17.7206493">
        <ele>43.8773</ele>
        <time>2013-05-19T12:00:02Z</time>
      </trkpt>
      <trkpt lat="59.9154368" lon="17.7206493">
        <ele>44.8386</ele>
        <time>2013-05-19T12:00:03Z</time>
      </trkpt>
      <trkpt lat="59.9154556" lon="17.7206516">
        <ele>45.7999</ele>
        <time>2013-05-19T12:00:04Z</time>
      </trkpt>
      <trkpt lat="59.9154683" lon="17.7206589">
        <ele>45.3192</ele>
        <time>2013-05-19T12:00:05Z</time>
      </trkpt>
      <trkpt lat="59.915475" lon="17.720671">
        <ele>44.8386</ele>
        <time>2013-05-19T12:00:06Z</time>
      </trkpt>
      <trkpt lat="59.9154881" lon="17.7206878">
        <ele>45.3192</ele>
        <time>2013-05-19T12:00:07Z</time>
      </trkpt>
      <trkpt lat="59.9155037" lon="17.7207037">
        <ele>45.7999</ele>
        <time>2013-05-19T12:00:08Z</time>
      </trkpt>
      <trkpt lat="59.9155171" lon="17.7207138">
        <ele>45.7999</ele>
        <time>2013-05-19T12:00:09Z</time>
      </trkpt>
      <trkpt lat="59.9155296" lon="17.7207272">
        <ele>45.7999</ele>
        <time>2013-05-19T12:00:10Z</time>
      </trkpt>
      <trkpt lat="59.915541" lon="17.7207479">
        <ele>45.7999</ele>
        <time>2013-05-19T12:00:11Z</time>
      </trkpt>
      <trkpt lat="59.9155534" lon="17.7207662">
        <ele>45.7999</ele>
        <time>2013-05-19T12:00:12Z</time>
      </trkpt>
      <trkpt lat="59.9155694" lon="17.7207743">
        <ele>45.7999</ele>
        <time>2013-05-19T12:00:13Z</time>
      </trkpt>
      <trkpt lat="59.9155846" lon="17.7207832">
        <ele>46.2806</ele>
        <time>2013-05-19T12:00:14Z</time>
      </trkpt>
      <trkpt lat="59.9156021" lon="17.7207939">
        <ele>46.7612</ele>
        <time>2013-05-19T12:00:15Z</time>
      </trkpt>
      <trkpt lat="59.9156145" lon="17.7208023">
        <ele>46.7612</ele>
        <time>2013-05-19T12:00:16Z</time>
      </trkpt>
      <trkpt lat="59.9156257" lon="17.7208102">
        <ele>46.2806</ele>
        <time>2013-05-19T12:00:17Z</time>
      </trkpt>
      <trkpt lat="59.9156385" lon="17.720826">
        <ele>46.2806</ele>
        <time>2013-05-19T12:00:18Z</time>
      </trkpt>
      <trkpt lat="59.9156523" lon="17.7208418">
        <ele>46.7612</ele>
        <time>2013-05-19T12:00:19Z</time>
      </trkpt>
      <trkpt lat="59.9156652" lon="17.7208537">
        <ele>46.7612</ele>
        <time>2013-05-19T12:00:20Z</time>
      </trkpt>
      <trkpt lat="59.9156775" lon="17.7208644">
        <ele>46.2806</ele>
        <time>2013-05-19T12:00:21Z</time>
      </trkpt>
      <trkpt lat="59.9156898" lon="17.7208741">
        <ele>46.2806</ele>
        <time>2013-05-19T12:00:22Z</time>
      </trkpt>
      <trkpt lat="59.9157016" lon="17.7208853">
        <ele>45.7999</ele>
        <time>2013-05-19T12:00:23Z</time>
      </trkpt>
      <trkpt lat="59.9157145" lon="17.7208935">
        <ele>45.3192</ele>
        <time>2013-05-19T12:00:24Z</time>
      </trkpt>
      <trkpt lat="59.9157269" lon="17.7208997">
        <ele>44.8386</ele>
        <time>2013-05-19T12:00:25Z</time>
      </trkpt>
      <trkpt lat="59.915744" lon="17.7209121">
        <ele>44.8386</ele>
        <time>2013-05-19T12:00:26Z</time>
      </trkpt>
      <trkpt lat="59.9157592" lon="17.7209261">
        <ele>45.3192</ele>
        <time>2013-05-19T12:00:27Z</time>
      </trkpt>
      <trkpt lat="59.91577" lon="17.720942">
        <ele>44.8386</ele>
        <time>2013-05-19T12:00:28Z</time>
      </trkpt>
      <trkpt lat="59.9157819" lon="17.7209541">
        <ele>44.8386</ele>
        <time>2013-05-19T12:00:29Z</time>
      </trkpt>
      <trkpt lat="59.9157925" lon="17.7209624">
        <ele>43.8773</ele>
        <time>2013-05-19T12:00:30Z</time>
      </trkpt>
      <trkpt lat="59.915807" lon="17.7209671">
        <ele>43.3966</ele>
        <time>2013-05-19T12:00:31Z</time>
      </trkpt>
      <trkpt lat="59.9158191" lon="17.7209711">
        <ele>42.916</ele>
        <time>2013-05-19T12:00:32Z</time>
      </trkpt>
      <trkpt lat="59.9158351" lon="17.7209713">
        <ele>42.4354</ele>
        <time>2013-05-19T12:00:33Z</time>
      </trkpt>
      <trkpt lat="59.9158537" lon="17.7209727">
        <ele>42.4354</ele>
        <time>2013-05-19T12:00:34Z</time>
      </trkpt>
      <trkpt lat="59.9158697" lon="17.7209784">
        <ele>42.4354</ele>
        <time>2013-05-19T12:00:35Z</time>
      </trkpt>
      <trkpt lat="59.9158904" lon="17.7209837">
        <ele>43.3966</ele>
        <time>2013-05-19T12:00:36Z</time>
      </trkpt>
      <trkpt lat="59.9159108" lon="17.7209889">
        <ele>44.358</ele>
        <time>2013-05-19T12:00:37Z</time>
      </trkpt>
      <trkpt lat="59.9159299" lon="17.7209876">
        <ele>44.358</ele>
        <time>2013-05-19T12:00:38Z</time>
      </trkpt>
      <trkpt lat="59.9159455" lon="17.7209907">
        <ele>44.358</ele>
        <time>2013-05-19T12:00:39Z</time>
      </trkpt>
      <trkpt lat="59.9159606" lon="17.7209953">
        <ele>44.8386</ele>
        <time>2013-05-19T12:00:40Z</time>
      </trkpt>
      <trkpt lat="59.915974" lon="17.7209971">
        <ele>44.8386</ele>
        <time>2013-05-19T12:00:41Z</time>
      </trkpt>
      <trkpt lat="59.9159868" lon="17.7210024">
        <ele>44.8386</ele>
        <time>2013-05-19T12:00:42Z</time>
      </trkpt>
      <trkpt lat="59.916002" lon="17.7210098">
        <ele>45.3192</ele>
        <time>2013-05-19T12:00:43Z</time>
      </trkpt>
      <trkpt lat="59.9160176" lon="17.7210152">
        <ele>45.3192</ele>
        <time>2013-05-19T12:00:44Z</time>
      </trkpt>
      <trkpt lat="59.9160322" lon="17.7210181">
        <ele>45.7999</ele>
        <time>2013-05-19T12:00:45Z</time>
      </trkpt>
      <trkpt lat="59.9160466" lon="17.7210214">
        <ele>45.7999</ele>
        <time>2013-05-19T12:00:46Z</time>
      </trkpt>
      <trkpt lat="59.9160625" lon="17.7210245">
        <ele>46.2806</ele>
        <time>2013-05-19T12:00:47Z</time>
      </trkpt>
      <trkpt lat="59.9160788" lon="17.721026">
        <ele>46.2806</ele>
        <time>2013-05-19T12:00:48Z</time>
      </trkpt>
      <trkpt lat="59.9160952" lon="17.7210266">
        <ele>46.2806</ele>
        <time>2013-05-19T12:00:49Z</time>
      </trkpt>
      <trkpt lat="59.9161122" lon="17.7210243">
        <ele>46.2806</ele>
        <time>2013-05-19T12:00:50Z</time>
      </trkpt>
      <trkpt lat="59.9161289" lon="17.7210223">
        <ele>45.7999</ele>
        <time>2013-05-19T12:00:51Z</time>
      </trkpt>
      <trkpt lat="59.916148" lon="17.7210198">
        <ele>45.7999</ele>
        <time>2013-05-19T12:00:52Z</time>
      </trkpt>
      <trkpt lat="59.9161645" lon="17.7210193">
        <ele>45.7999</ele>
        <time>2013-05-19T12:00:53Z</time>
      </trkpt>
      <trkpt lat="59.9161803" lon="17.7210274">
        <ele>45.7999</ele>
        <time>2013-05-19T12:00:54Z</time>
      </trkpt>
      <trkpt lat="59.9161978" lon="17.7210296">
        <ele>46.2806</ele>
        <time>2013-05-19T12:00:55Z</time>
      </trkpt>
      <trkpt lat="59.9162154" lon="17.7210291">
        <ele>46.7612</ele>
        <time>2013-05-19T12:00:56Z</time>
      </trkpt>
      <trkpt lat="59.9162305" lon="17.7210318">
        <ele>47.2418</ele>
        <time>2013-05-19T12:00:57Z</time>
      </trkpt>
      <trkpt lat="59.9162428" lon="17.7210352">
        <ele>47.2418</ele>
        <time>2013-05-19T12:00:58Z</time>
      </trkpt>
      <trkpt lat="59.9162562" lon="17.7210406">
        <ele>46.7612</ele>
        <time>2013-05-19T12:00:59Z</time>
      </trkpt>
      <trkpt lat="59.9162696" lon="17.7210452">
        <ele>47.2418</ele>
        <time>2013-05-19T12:01:00Z</time>
      </trkpt>
      <trkpt lat="59.9162791" lon="17.7210515">
        <ele>46.7612</ele>
        <time>2013-05-19T12:01:01Z</time>
      </trkpt>
      <trkpt lat="59.9162889" lon="17.7210566">
        <ele>46.7612</ele>
        <time>2013-05-19T12:01:02Z</time>
      </trkpt>
      <trkpt lat="59.9163062" lon="17.7210549">
        <ele>47.2418</ele>
        <time>2013-05-19T12:01:03Z</time>
      </trkpt>
      <trkpt lat="59.9163242" lon="17.7210546">
        <ele>47.2418</ele>
        <time>2013-05-19T12:01:04Z</time>
      </trkpt>
      <trkpt lat="59.9163366" lon="17.7210595">
        <ele>47.2418</ele>
        <time>2013-05-19T12:01:05Z</time>
      </trkpt>
      <trkpt lat="59.9163487" lon="17.7210619">
        <ele>47.2418</ele>
        <time>2013-05-19T12:01:06Z</time>
      </trkpt>
      <trkpt lat="59.9163605" lon="17.7210629">
        <ele>46.7612</ele>
        <time>2013-05-19T12:01:07Z</time>
      </trkpt>
      <trkpt lat="59.9163724" lon="17.7210696">
        <ele>47.2418</ele>
        <time>2013-05-19T12:01:08Z</time>
      </trkpt>
      <trkpt lat="59.9163854" lon="17.721077">
        <ele>47.7225</ele>
        <time>2013-05-19T12:01:09Z</time>
      </trkpt>
      <trkpt lat="59.9164018" lon="17.7210854">
        <ele>48.2034</ele>
        <time>2013-05-19T12:01:10Z</time>
      </trkpt>
      <trkpt lat="59.9164155" lon="17.7210929">
        <ele>48.2034</ele>
        <time>2013-05-19T12:01:11Z</time>
      </trkpt>
      <trkpt lat="59.9164346" lon="17.7210945">
        <ele>48.684</ele>
        <time>2013-05-19T12:01:12Z</time>
      </trkpt>
      <trkpt lat="59.9164553" lon="17.7210908">
        <ele>49.1646</ele>
        <time>2013-05-19T12:01:13Z</time>
      </trkpt>
      <trkpt lat="59.9164677" lon="17.721088">
        <ele>48.684</ele>
        <time>2013-05-19T12:01:14Z</time>
      </trkpt>
      <trkpt lat="59.9164781" lon="17.7210846">
        <ele>48.684</ele>
        <time>2013-05-19T12:01:15Z</time>
      </trkpt>
      <trkpt lat="59.9164888" lon="17.7210829">
        <ele>49.1646</ele>
        <time>2013-05-19T12:01:16Z</time>
      </trkpt>
      <trkpt lat="59.9164991" lon="17.7210809">
        <ele>49.1646</ele>
        <time>2013-05-19T12:01:17Z</time>
      </trkpt>
      <trkpt lat="59.9165103" lon="17.7210797">
        <ele>49.1646</ele>
        <time>2013-05-19T12:01:18Z</time>
      </trkpt>
      <trkpt lat="59.9165236" lon="17.7210867">
        <ele>49.1646</ele>
        <time>2013-05-19T12:01:19Z</time>
      </trkpt>
      <trkpt lat="59.9165304" lon="17.7210986">
        <ele>48.684</ele>
        <time>2013-05-19T12:01:20Z</time>
      </trkpt>
      <trkpt lat="59.9165343" lon="17.7211064">
        <ele>48.2034</ele>
        <time>2013-05-19T12:01:21Z</time>
      </trkpt>
      <trkpt lat="59.9165449" lon="17.7211105">
        <ele>47.7225</ele>
        <time>2013-05-19T12:01:22Z</time>
      </trkpt>
      <trkpt lat="59.9165561" lon="17.7211111">
        <ele>47.2418</ele>
        <time>2013-05-19T12:01:23Z</time>
      </trkpt>
      <trkpt lat="59.9165664" lon="17.7211105">
        <ele>47.2418</ele>
        <time>2013-05-19T12:01:24Z</time>
      </trkpt>
      <trkpt lat="59.9165745" lon="17.7211124">
        <ele>47.2418</ele>
        <time>2013-05-19T12:01:25Z</time>
      </trkpt>
      <trkpt lat="59.9165874" lon="17.7211131">
        <ele>47.2418</ele>
        <time>2013-05-19T12:01:26Z</time>
      </trkpt>
      <trkpt lat="59.9166024" lon="17.7211146">
        <ele>46.7612</ele>
        <time>2013-05-19T12:01:27Z</time>
      </trkpt>
      <trkpt lat="59.9166169" lon="17.7211168">
        <ele>46.2806</ele>
        <time>2013-05-19T12:01:28Z</time>
      </trkpt>
      <trkpt lat="59.9166315" lon="17.7211257">
        <ele>46.2806</ele>
        <time>2013-05-19T12:01:29Z</time>
      </trkpt>
      <trkpt lat="59.9166494" lon="17.7211334">
        <ele>46.2806</ele>
        <time>2013-05-19T12:01:30Z</time>
      </trkpt>
      <trkpt lat="59.9166686" lon="17.7211321">
        <ele>46.7612</ele>
        <time>2013-05-19T12:01:31Z</time>
      </trkpt>
      <trkpt lat="59.9166864" lon="17.7211293">
        <ele>46.2806</ele>
        <time>2013-05-19T12:01:32Z</time>
      </trkpt>
      <trkpt lat="59.9167001" lon="17.7211338">
        <ele>45.7999</ele>
        <time>2013-05-19T12:01:33Z</time>
      </trkpt>
      <trkpt lat="59.9167132" lon="17.7211442">
        <ele>46.2806</ele>
        <time>2013-05-19T12:01:34Z</time>
      </trkpt>
      <trkpt lat="59.9167229" lon="17.7211592">
        <ele>46.7612</ele>
        <time>2013-05-19T12:01:35Z</time>
      </trkpt>
      <trkpt lat="59.9167329" lon="17.7211735">
        <ele>46.7612</ele>
        <time>2013-05-19T12:01:36Z</time>
      </trkpt>
      <trkpt lat="59.9167458" lon="17.7211881">
        <ele>46.7612</ele>
        <time>2013-05-19T12:01:37Z</time>
      </trkpt>
      <trkpt lat="59.9167602" lon="17.7211991">
        <ele>46.7612</ele>
        <time>2013-05-19T12:01:38Z</time>
      </trkpt>
      <trkpt lat="59.9167731" lon="17.7212079">
        <ele>46.7612</ele>
        <time>2013-05-19T12:01:39Z</time>
      </trkpt>
      <trkpt lat="59.9167855" lon="17.7212163">
        <ele>46.2806</ele>
        <time>2013-05-19T12:01:40Z</time>
      </trkpt>
      <trkpt lat="59.9168034" lon="17.7212291">
        <ele>46.2806</ele>
        <time>2013-05-19T12:01:41Z</time>
      </trkpt>
      <trkpt lat="59.9168158" lon="17.7212403">
        <ele>46.2806</ele>
        <time>2013-05-19T12:01:42Z</time>
      </trkpt>
      <trkpt lat="59.9168288" lon="17.7212482">
        <ele>45.7999</ele>
        <time>2013-05-19T12:01:43Z</time>
      </trkpt>
      <trkpt lat="59.9168451" lon="17.7212512">
        <ele>46.2806</ele>
        <time>2013-05-19T12:01:44Z</time>
      </trkpt>
      <trkpt lat="59.9168607" lon="17.7212536">
        <ele>46.2806</ele>
        <time>2013-05-19T12:01:45Z</time>
      </trkpt>
      <trkpt lat="59.9168737" lon="17.7212575">
        <ele>46.7612</ele>
        <time>2013-05-19T12:01:46Z</time>
      </trkpt>
      <trkpt lat="59.9168867" lon="17.7212587">
        <ele>46.7612</ele>
        <time>2013-05-19T12:01:47Z</time>
      </trkpt>
      <trkpt lat="59.9168964" lon="17.7212644">
        <ele>46.2806</ele>
        <time>2013-05-19T12:01:48Z</time>
      </trkpt>
      <trkpt lat="59.9169059" lon="17.7212695">
        <ele>46.2806</ele>
        <time>2013-05-19T12:01:49Z</time>
      </trkpt>
      <trkpt lat="59.9169195" lon="17.7212633">
        <ele>46.7612</ele>
        <time>2013-05-19T12:01:50Z</time>
      </trkpt>
      <trkpt lat="59.9169337" lon="17.7212525">
        <ele>46.7612</ele>
        <time>2013-05-19T12:01:51Z</time>
      </trkpt>
      <trkpt lat="59.9169484" lon="17.7212463">
        <ele>47.2418</ele>
        <time>2013-05-19T12:01:52Z</time>
      </trkpt>
      <trkpt lat="59.9169603" lon="17.7212405">
        <ele>47.2418</ele>
        <time>2013-05-19T12:01:53Z</time>
      </trkpt>
      <trkpt lat="59.9169758" lon="17.7212334">
        <ele>47.7225</ele>
        <time>2013-05-19T12:01:54Z</time>
      </trkpt>
      <trkpt lat="59.9169914" lon="17.7212225">
        <ele>48.2034</ele>
        <time>2013-05-19T12:01:55Z</time>
      </trkpt>
      <trkpt lat="59.9170032" lon="17.7212093">
        <ele>47.7225</ele>
        <time>2013-05-19T12:01:56Z</time>
      </trkpt>
      <trkpt lat="59.9170163" lon="17.7211965">
        <ele>47.2418</ele>
        <time>2013-05-19T12:01:57Z</time>
      </trkpt>
      <trkpt lat="59.9170296" lon="17.7211845">
        <ele>47.2418</ele>
        <time>2013-05-19T12:01:58Z</time>
      </trkpt>
      <trkpt lat="59.9170437" lon="17.7211731">
        <ele>47.2418</ele>
        <time>2013-05-19T12:01:59Z</time>
      </trkpt>
      <trkpt lat="59.9170567" lon="17.7211653">
        <ele>46.7612</ele>
        <time>2013-05-19T12:02:00Z</time>
      </trkpt>
      <trkpt lat="59.9170697" lon="17.7211592">
        <ele>46.7612</ele>
        <time>2013-05-19T12:02:01Z</time>
      </trkpt>
      <trkpt lat="59.917085" lon="17.7211492">
        <ele>47.2418</ele>
        <time>2013-05-19T12:02:02Z</time>
      </trkpt>
      <trkpt lat="59.9170991" lon="17.7211395">
        <ele>47.2418</ele>
        <time>2013-05-19T12:02:03Z</time>
      </trkpt>
      <trkpt lat="59.9171124" lon="17.7211336">
        <ele>47.7225</ele>
        <time>2013-05-19T12:02:04Z</time>
      </trkpt>
      <trkpt lat="59.9171267" lon="17.721128">
        <ele>47.7225</ele>
        <time>2013-05-19T12:02:05Z</time>
      </trkpt>
      <trkpt lat="59.9171409" lon="17.7211229">
        <ele>47.7225</ele>
        <time>2013-05-19T12:02:06Z</time>
      </trkpt>
      <trkpt lat="59.9171552" lon="17.7211124">
        <ele>48.2034</ele>
        <time>2013-05-19T12:02:07Z</time>
      </trkpt>
      <trkpt lat="59.9171675" lon="17.7211026">
        <ele>48.2034</ele>
        <time>2013-05-19T12:02:08Z</time>
      </trkpt>
      <trkpt lat="59.9171815" lon="17.7211018">
        <ele>47.7225</ele>
        <time>2013-05-19T12:02:09Z</time>
      </trkpt>
      <trkpt lat="59.9171979" lon="17.7210989">
        <ele>48.2034</ele>
        <time>2013-05-19T12:02:10Z</time>
      </trkpt>
      <trkpt lat="59.9172136" lon="17.7210929">
        <ele>48.2034</ele>
        <time>2013-05-19T12:02:11Z</time>
      </trkpt>
      <trkpt lat="59.9172282" lon="17.721092">
        <ele>48.2034</ele>
        <time>2013-05-19T12:02:12Z</time>
      </trkpt>
      <trkpt lat="59.9172398" lon="17.7210927">
        <ele>47.7225</ele>
        <time>2013-05-19T12:02:13Z</time>
      </trkpt>
      <trkpt lat="59.917252" lon="17.7210884">
        <ele>47.7225</ele>
        <time>2013-05-19T12:02:14Z</time>
      </trkpt>
      <trkpt lat="59.917265" lon="17.7210794">
        <ele>48.2034</ele>
        <time>2013-05-19T12:02:15Z</time>
      </trkpt>
      <trkpt lat="59.9172783" lon="17.7210687">
        <ele>48.2034</ele>
        <time>2013-05-19T12:02:16Z</time>
      </trkpt>
      <trkpt lat="59.9172903" lon="17.7210552">
        <ele>48.2034</ele>
        <time>2013-05-19T12:02:17Z</time>
      </trkpt>
      <trkpt lat="59.9173039" lon="17.7210389">
        <ele>48.684</ele>
        <time>2013-05-19T12:02:18Z</time>
      </trkpt>
      <trkpt lat="59.9173189" lon="17.7210215">
        <ele>49.1646</ele>
        <time>2013-05-19T12:02:19Z</time>
      </trkpt>
      <trkpt lat="59.9173348" lon="17.7210084">
        <ele>49.1646</ele>
        <time>2013-05-19T12:02:20Z</time>
      </trkpt>
      <trkpt lat="59.9173505" lon="17.7210002">
        <ele>49.1646</ele>
        <time>2013-05-19T12:02:21Z</time>
      </trkpt>
      <trkpt lat="59.9173674" lon="17.7209883">
        <ele>49.6453</ele>
        <time>2013-05-19T12:02:22Z</time>
      </trkpt>
      <trkpt lat="59.9173819" lon="17.7209742">
        <ele>49.6453</ele>
        <time>2013-05-19T12:02:23Z</time>
      </trkpt>
      <trkpt lat="59.9173948" lon="17.7209627">
        <ele>49.6453</ele>
        <time>2013-05-19T12:02:24Z</time>
      </trkpt>
      <trkpt lat="59.9174062" lon="17.7209551">
        <ele>49.1646</ele>
        <time>2013-05-19T12:02:25Z</time>
      </trkpt>
      <trkpt lat="59.9174199" lon="17.720949">
        <ele>49.1646</ele>
        <time>2013-05-19T12:02:26Z</time>
      </trkpt>
      <trkpt lat="59.9174357" lon="17.7209432">
        <ele>49.1646</ele>
        <time>2013-05-19T12:02:27Z</time>
      </trkpt>
      <trkpt lat="59.9174478" lon="17.7209422">
        <ele>49.1646</ele>
        <time>2013-05-19T12:02:28Z</time>
      </trkpt>
      <trkpt lat="59.9174595" lon="17.7209391">
        <ele>48.684</ele>
        <time>2013-05-19T12:02:29Z</time>
      </trkpt>
      <trkpt lat="59.9174737" lon="17.7209288">
        <ele>48.2034</ele>
        <time>2013-05-19T12:02:30Z</time>
      </trkpt>
      <trkpt lat="59.9174859" lon="17.7209203">
        <ele>48.2034</ele>
        <time>2013-05-19T12:02:31Z</time>
      </trkpt>
      <trkpt lat="59.9174994" lon="17.7209189">
        <ele>47.7225</ele>
        <time>2013-05-19T12:02:32Z</time>
      </trkpt>
      <trkpt lat="59.9175123" lon="17.7209129">
        <ele>47.7225</ele>
        <time>2013-05-19T12:02:33Z</time>
      </trkpt>
      <trkpt lat="59.9175245" lon="17.7208997">
        <ele>47.7225</ele>
        <time>2013-05-19T12:02:34Z</time>
      </trkpt>
      <trkpt lat="59.9175393" lon="17.7208817">
        <ele>48.2034</ele>
        <time>2013-05-19T12:02:35Z</time>
      </trkpt>
      <trkpt lat="59.9175536" lon="17.7208623">
        <ele>48.684</ele>
        <time>2013-05-19T12:02:36Z</time>
      </trkpt>
      <trkpt lat="59.9175714" lon="17.7208529">
        <ele>48.684</ele>
        <time>2013-05-19T12:02:37Z</time>
      </trkpt>
      <trkpt lat="59.9175848" lon="17.7208474">
        <ele>48.684</ele>
        <time>2013-05-19T12:02:38Z</time>
      </trkpt>
      <trkpt lat="59.9175967" lon="17.720835">
        <ele>48.684</ele>
        <time>2013-05-19T12:02:39Z</time>
      </trkpt>
    </trkseg>
  </trk>
</gpx>